<?xml version="1.0" encoding="UTF-8" standalone="no" ?>
<gpx xmlns="http://www.topografix.com/GPX/1/1" xmlns:xsi="http://www.w3.org/2001/XMLSchema-instance" xsi:schemaLocation="http://www.topografix.com/GPX/1/1 http://www.topografix.com/GPX/1/1/gpx.xsd" version="1.1" creator="VisuGPX - https://www.visugpx.com">
  <metadata>
    <name>VTT 11 SEPT 2019 17:48</name>
    <desc><![CDATA[Tour de  VTT avec trés peu de route.
Passage en sous bois , single track.]]></desc>
  </metadata>
  <trk>
    <name><![CDATA[VTT 11 SEPT 2019 17:48]]></name>
    <trkseg>
      <trkpt lat="46.33309" lon="2.48419">
        <ele>397.16</ele>
        <time>2019-09-11T15:48:49Z</time>
      </trkpt>
      <trkpt lat="46.33311" lon="2.4842">
        <ele>397.16</ele>
        <time>2019-09-11T15:48:50Z</time>
      </trkpt>
      <trkpt lat="46.33318" lon="2.48425">
        <ele>397.16</ele>
        <time>2019-09-11T15:48:53Z</time>
      </trkpt>
      <trkpt lat="46.33321" lon="2.48428">
        <ele>399.08</ele>
        <time>2019-09-11T15:48:54Z</time>
      </trkpt>
      <trkpt lat="46.33347" lon="2.48456">
        <ele>395.72</ele>
        <time>2019-09-11T15:49:02Z</time>
      </trkpt>
      <trkpt lat="46.33352" lon="2.48461">
        <ele>394.76</ele>
        <time>2019-09-11T15:49:04Z</time>
      </trkpt>
      <trkpt lat="46.33365" lon="2.48471">
        <ele>394.28</ele>
        <time>2019-09-11T15:49:08Z</time>
      </trkpt>
      <trkpt lat="46.33402" lon="2.48492">
        <ele>392.84</ele>
        <time>2019-09-11T15:49:20Z</time>
      </trkpt>
      <trkpt lat="46.33404" lon="2.48493">
        <ele>392.84</ele>
        <time>2019-09-11T15:49:21Z</time>
      </trkpt>
      <trkpt lat="46.33406" lon="2.48495">
        <ele>392.84</ele>
        <time>2019-09-11T15:49:22Z</time>
      </trkpt>
      <trkpt lat="46.3341" lon="2.48497">
        <ele>392.84</ele>
        <time>2019-09-11T15:49:24Z</time>
      </trkpt>
      <trkpt lat="46.33412" lon="2.48496">
        <ele>392.84</ele>
        <time>2019-09-11T15:49:25Z</time>
      </trkpt>
      <trkpt lat="46.33415" lon="2.48493">
        <ele>392.84</ele>
        <time>2019-09-11T15:49:26Z</time>
      </trkpt>
      <trkpt lat="46.33435" lon="2.48446">
        <ele>392.84</ele>
        <time>2019-09-11T15:49:37Z</time>
      </trkpt>
      <trkpt lat="46.33435" lon="2.48443">
        <ele>392.84</ele>
        <time>2019-09-11T15:49:38Z</time>
      </trkpt>
      <trkpt lat="46.33437" lon="2.4844">
        <ele>392.84</ele>
        <time>2019-09-11T15:49:39Z</time>
      </trkpt>
      <trkpt lat="46.33443" lon="2.48431">
        <ele>392.84</ele>
        <time>2019-09-11T15:49:42Z</time>
      </trkpt>
      <trkpt lat="46.33446" lon="2.4843">
        <ele>392.84</ele>
        <time>2019-09-11T15:49:43Z</time>
      </trkpt>
      <trkpt lat="46.33449" lon="2.4843">
        <ele>392.84</ele>
        <time>2019-09-11T15:49:44Z</time>
      </trkpt>
      <trkpt lat="46.33453" lon="2.48432">
        <ele>392.84</ele>
        <time>2019-09-11T15:49:45Z</time>
      </trkpt>
      <trkpt lat="46.33455" lon="2.48435">
        <ele>392.84</ele>
        <time>2019-09-11T15:49:46Z</time>
      </trkpt>
      <trkpt lat="46.33457" lon="2.48439">
        <ele>392.84</ele>
        <time>2019-09-11T15:49:47Z</time>
      </trkpt>
      <trkpt lat="46.33468" lon="2.48459">
        <ele>392.84</ele>
        <time>2019-09-11T15:49:51Z</time>
      </trkpt>
      <trkpt lat="46.33516" lon="2.48549">
        <ele>390.91</ele>
        <time>2019-09-11T15:50:05Z</time>
      </trkpt>
      <trkpt lat="46.3356" lon="2.48631">
        <ele>387.55</ele>
        <time>2019-09-11T15:50:16Z</time>
      </trkpt>
      <trkpt lat="46.33617" lon="2.48778">
        <ele>386.59</ele>
        <time>2019-09-11T15:50:34Z</time>
      </trkpt>
      <trkpt lat="46.3363" lon="2.48891">
        <ele>386.59</ele>
        <time>2019-09-11T15:50:47Z</time>
      </trkpt>
      <trkpt lat="46.33629" lon="2.48906">
        <ele>386.59</ele>
        <time>2019-09-11T15:50:49Z</time>
      </trkpt>
      <trkpt lat="46.33629" lon="2.48913">
        <ele>386.59</ele>
        <time>2019-09-11T15:50:50Z</time>
      </trkpt>
      <trkpt lat="46.33629" lon="2.4892">
        <ele>388.03</ele>
        <time>2019-09-11T15:50:51Z</time>
      </trkpt>
      <trkpt lat="46.33629" lon="2.48927">
        <ele>388.03</ele>
        <time>2019-09-11T15:50:52Z</time>
      </trkpt>
      <trkpt lat="46.33629" lon="2.48933">
        <ele>388.51</ele>
        <time>2019-09-11T15:50:53Z</time>
      </trkpt>
      <trkpt lat="46.33635" lon="2.48989">
        <ele>391.39</ele>
        <time>2019-09-11T15:51:04Z</time>
      </trkpt>
      <trkpt lat="46.33635" lon="2.49033">
        <ele>394.28</ele>
        <time>2019-09-11T15:51:13Z</time>
      </trkpt>
      <trkpt lat="46.33637" lon="2.49077">
        <ele>396.68</ele>
        <time>2019-09-11T15:51:24Z</time>
      </trkpt>
      <trkpt lat="46.33651" lon="2.4912">
        <ele>398.12</ele>
        <time>2019-09-11T15:51:36Z</time>
      </trkpt>
      <trkpt lat="46.3369" lon="2.49168">
        <ele>399.08</ele>
        <time>2019-09-11T15:51:50Z</time>
      </trkpt>
      <trkpt lat="46.33694" lon="2.49172">
        <ele>398.6</ele>
        <time>2019-09-11T15:51:51Z</time>
      </trkpt>
      <trkpt lat="46.33697" lon="2.49176">
        <ele>398.6</ele>
        <time>2019-09-11T15:51:52Z</time>
      </trkpt>
      <trkpt lat="46.33736" lon="2.49227">
        <ele>398.6</ele>
        <time>2019-09-11T15:52:04Z</time>
      </trkpt>
      <trkpt lat="46.3374" lon="2.49231">
        <ele>398.6</ele>
        <time>2019-09-11T15:52:05Z</time>
      </trkpt>
      <trkpt lat="46.33751" lon="2.49243">
        <ele>398.6</ele>
        <time>2019-09-11T15:52:08Z</time>
      </trkpt>
      <trkpt lat="46.33755" lon="2.49246">
        <ele>398.6</ele>
        <time>2019-09-11T15:52:09Z</time>
      </trkpt>
      <trkpt lat="46.3376" lon="2.49249">
        <ele>398.6</ele>
        <time>2019-09-11T15:52:10Z</time>
      </trkpt>
      <trkpt lat="46.33765" lon="2.4925">
        <ele>398.6</ele>
        <time>2019-09-11T15:52:11Z</time>
      </trkpt>
      <trkpt lat="46.33769" lon="2.49251">
        <ele>398.6</ele>
        <time>2019-09-11T15:52:12Z</time>
      </trkpt>
      <trkpt lat="46.33808" lon="2.49263">
        <ele>399.08</ele>
        <time>2019-09-11T15:52:21Z</time>
      </trkpt>
      <trkpt lat="46.33812" lon="2.49266">
        <ele>399.08</ele>
        <time>2019-09-11T15:52:22Z</time>
      </trkpt>
      <trkpt lat="46.33815" lon="2.49271">
        <ele>399.08</ele>
        <time>2019-09-11T15:52:23Z</time>
      </trkpt>
      <trkpt lat="46.33824" lon="2.49286">
        <ele>399.08</ele>
        <time>2019-09-11T15:52:26Z</time>
      </trkpt>
      <trkpt lat="46.33827" lon="2.4929">
        <ele>399.08</ele>
        <time>2019-09-11T15:52:27Z</time>
      </trkpt>
      <trkpt lat="46.33857" lon="2.49346">
        <ele>400.53</ele>
        <time>2019-09-11T15:52:40Z</time>
      </trkpt>
      <trkpt lat="46.33892" lon="2.49422">
        <ele>402.45</ele>
        <time>2019-09-11T15:52:57Z</time>
      </trkpt>
      <trkpt lat="46.33911" lon="2.49485">
        <ele>403.41</ele>
        <time>2019-09-11T15:53:10Z</time>
      </trkpt>
      <trkpt lat="46.33924" lon="2.49546">
        <ele>404.37</ele>
        <time>2019-09-11T15:53:22Z</time>
      </trkpt>
      <trkpt lat="46.33944" lon="2.49611">
        <ele>405.33</ele>
        <time>2019-09-11T15:53:35Z</time>
      </trkpt>
      <trkpt lat="46.33957" lon="2.4966">
        <ele>405.33</ele>
        <time>2019-09-11T15:53:44Z</time>
      </trkpt>
      <trkpt lat="46.33957" lon="2.49667">
        <ele>405.81</ele>
        <time>2019-09-11T15:53:45Z</time>
      </trkpt>
      <trkpt lat="46.33956" lon="2.49673">
        <ele>405.81</ele>
        <time>2019-09-11T15:53:46Z</time>
      </trkpt>
      <trkpt lat="46.33955" lon="2.49679">
        <ele>405.81</ele>
        <time>2019-09-11T15:53:47Z</time>
      </trkpt>
      <trkpt lat="46.33954" lon="2.49685">
        <ele>405.81</ele>
        <time>2019-09-11T15:53:48Z</time>
      </trkpt>
      <trkpt lat="46.33951" lon="2.49703">
        <ele>406.29</ele>
        <time>2019-09-11T15:53:51Z</time>
      </trkpt>
      <trkpt lat="46.33947" lon="2.49722">
        <ele>406.29</ele>
        <time>2019-09-11T15:53:54Z</time>
      </trkpt>
      <trkpt lat="46.33946" lon="2.49729">
        <ele>406.29</ele>
        <time>2019-09-11T15:53:55Z</time>
      </trkpt>
      <trkpt lat="46.3394" lon="2.49757">
        <ele>406.77</ele>
        <time>2019-09-11T15:54:00Z</time>
      </trkpt>
      <trkpt lat="46.33929" lon="2.49786">
        <ele>407.26</ele>
        <time>2019-09-11T15:54:05Z</time>
      </trkpt>
      <trkpt lat="46.33903" lon="2.4984">
        <ele>408.22</ele>
        <time>2019-09-11T15:54:16Z</time>
      </trkpt>
      <trkpt lat="46.33863" lon="2.49893">
        <ele>411.1</ele>
        <time>2019-09-11T15:54:30Z</time>
      </trkpt>
      <trkpt lat="46.33825" lon="2.49939">
        <ele>412.06</ele>
        <time>2019-09-11T15:54:43Z</time>
      </trkpt>
      <trkpt lat="46.33818" lon="2.49944">
        <ele>412.06</ele>
        <time>2019-09-11T15:54:45Z</time>
      </trkpt>
      <trkpt lat="46.33813" lon="2.49946">
        <ele>412.06</ele>
        <time>2019-09-11T15:54:46Z</time>
      </trkpt>
      <trkpt lat="46.33811" lon="2.49947">
        <ele>412.06</ele>
        <time>2019-09-11T15:54:47Z</time>
      </trkpt>
      <trkpt lat="46.33812" lon="2.49947">
        <ele>412.06</ele>
        <time>2019-09-11T15:54:56Z</time>
      </trkpt>
      <trkpt lat="46.33811" lon="2.49946">
        <ele>412.06</ele>
        <time>2019-09-11T15:55:18Z</time>
      </trkpt>
      <trkpt lat="46.33811" lon="2.49946">
        <ele>410.62</ele>
        <time>2019-09-11T15:55:47Z</time>
      </trkpt>
      <trkpt lat="46.3381" lon="2.49946">
        <ele>410.62</ele>
        <time>2019-09-11T15:55:52Z</time>
      </trkpt>
      <trkpt lat="46.33808" lon="2.49946">
        <ele>410.62</ele>
        <time>2019-09-11T15:55:53Z</time>
      </trkpt>
      <trkpt lat="46.33806" lon="2.49944">
        <ele>410.62</ele>
        <time>2019-09-11T15:55:54Z</time>
      </trkpt>
      <trkpt lat="46.33805" lon="2.49942">
        <ele>410.62</ele>
        <time>2019-09-11T15:55:55Z</time>
      </trkpt>
      <trkpt lat="46.33802" lon="2.4994">
        <ele>410.62</ele>
        <time>2019-09-11T15:55:56Z</time>
      </trkpt>
      <trkpt lat="46.33778" lon="2.49914">
        <ele>412.06</ele>
        <time>2019-09-11T15:56:06Z</time>
      </trkpt>
      <trkpt lat="46.33733" lon="2.49865">
        <ele>412.54</ele>
        <time>2019-09-11T15:56:20Z</time>
      </trkpt>
      <trkpt lat="46.33729" lon="2.49861">
        <ele>412.54</ele>
        <time>2019-09-11T15:56:21Z</time>
      </trkpt>
      <trkpt lat="46.33726" lon="2.49857">
        <ele>412.54</ele>
        <time>2019-09-11T15:56:22Z</time>
      </trkpt>
      <trkpt lat="46.33692" lon="2.49825">
        <ele>413.02</ele>
        <time>2019-09-11T15:56:30Z</time>
      </trkpt>
      <trkpt lat="46.33624" lon="2.49777">
        <ele>413.98</ele>
        <time>2019-09-11T15:56:44Z</time>
      </trkpt>
      <trkpt lat="46.33554" lon="2.49718">
        <ele>413.5</ele>
        <time>2019-09-11T15:56:58Z</time>
      </trkpt>
      <trkpt lat="46.3351" lon="2.49689">
        <ele>413.5</ele>
        <time>2019-09-11T15:57:06Z</time>
      </trkpt>
      <trkpt lat="46.33504" lon="2.49686">
        <ele>413.5</ele>
        <time>2019-09-11T15:57:07Z</time>
      </trkpt>
      <trkpt lat="46.33406" lon="2.49657">
        <ele>413.02</ele>
        <time>2019-09-11T15:57:22Z</time>
      </trkpt>
      <trkpt lat="46.33333" lon="2.49632">
        <ele>414.47</ele>
        <time>2019-09-11T15:57:34Z</time>
      </trkpt>
      <trkpt lat="46.33328" lon="2.49628">
        <ele>414.47</ele>
        <time>2019-09-11T15:57:35Z</time>
      </trkpt>
      <trkpt lat="46.33288" lon="2.49599">
        <ele>415.43</ele>
        <time>2019-09-11T15:57:43Z</time>
      </trkpt>
      <trkpt lat="46.33279" lon="2.49594">
        <ele>415.43</ele>
        <time>2019-09-11T15:57:45Z</time>
      </trkpt>
      <trkpt lat="46.3323" lon="2.49563">
        <ele>415.43</ele>
        <time>2019-09-11T15:57:56Z</time>
      </trkpt>
      <trkpt lat="46.33203" lon="2.49561">
        <ele>415.43</ele>
        <time>2019-09-11T15:58:04Z</time>
      </trkpt>
      <trkpt lat="46.33194" lon="2.49558">
        <ele>415.43</ele>
        <time>2019-09-11T15:58:06Z</time>
      </trkpt>
      <trkpt lat="46.33169" lon="2.49545">
        <ele>415.91</ele>
        <time>2019-09-11T15:58:12Z</time>
      </trkpt>
      <trkpt lat="46.33165" lon="2.49542">
        <ele>416.39</ele>
        <time>2019-09-11T15:58:13Z</time>
      </trkpt>
      <trkpt lat="46.33157" lon="2.49538">
        <ele>416.87</ele>
        <time>2019-09-11T15:58:15Z</time>
      </trkpt>
      <trkpt lat="46.33153" lon="2.49535">
        <ele>416.87</ele>
        <time>2019-09-11T15:58:16Z</time>
      </trkpt>
      <trkpt lat="46.33149" lon="2.49532">
        <ele>417.35</ele>
        <time>2019-09-11T15:58:17Z</time>
      </trkpt>
      <trkpt lat="46.33146" lon="2.4953">
        <ele>417.35</ele>
        <time>2019-09-11T15:58:18Z</time>
      </trkpt>
      <trkpt lat="46.33142" lon="2.49528">
        <ele>417.83</ele>
        <time>2019-09-11T15:58:19Z</time>
      </trkpt>
      <trkpt lat="46.33112" lon="2.49501">
        <ele>420.23</ele>
        <time>2019-09-11T15:58:29Z</time>
      </trkpt>
      <trkpt lat="46.33082" lon="2.49479">
        <ele>422.64</ele>
        <time>2019-09-11T15:58:40Z</time>
      </trkpt>
      <trkpt lat="46.33039" lon="2.49445">
        <ele>424.56</ele>
        <time>2019-09-11T15:58:52Z</time>
      </trkpt>
      <trkpt lat="46.33036" lon="2.49441">
        <ele>424.56</ele>
        <time>2019-09-11T15:58:53Z</time>
      </trkpt>
      <trkpt lat="46.33023" lon="2.49423">
        <ele>424.56</ele>
        <time>2019-09-11T15:58:57Z</time>
      </trkpt>
      <trkpt lat="46.3302" lon="2.49419">
        <ele>424.56</ele>
        <time>2019-09-11T15:58:58Z</time>
      </trkpt>
      <trkpt lat="46.33011" lon="2.49413">
        <ele>425.52</ele>
        <time>2019-09-11T15:59:00Z</time>
      </trkpt>
      <trkpt lat="46.33007" lon="2.49411">
        <ele>425.52</ele>
        <time>2019-09-11T15:59:01Z</time>
      </trkpt>
      <trkpt lat="46.32964" lon="2.49384">
        <ele>425.52</ele>
        <time>2019-09-11T15:59:10Z</time>
      </trkpt>
      <trkpt lat="46.32889" lon="2.49334">
        <ele>427.44</ele>
        <time>2019-09-11T15:59:26Z</time>
      </trkpt>
      <trkpt lat="46.32863" lon="2.49318">
        <ele>427.44</ele>
        <time>2019-09-11T15:59:32Z</time>
      </trkpt>
      <trkpt lat="46.32854" lon="2.49312">
        <ele>427.44</ele>
        <time>2019-09-11T15:59:34Z</time>
      </trkpt>
      <trkpt lat="46.3284" lon="2.49299">
        <ele>427.44</ele>
        <time>2019-09-11T15:59:37Z</time>
      </trkpt>
      <trkpt lat="46.32776" lon="2.49227">
        <ele>427.92</ele>
        <time>2019-09-11T15:59:53Z</time>
      </trkpt>
      <trkpt lat="46.32772" lon="2.49223">
        <ele>428.4</ele>
        <time>2019-09-11T15:59:54Z</time>
      </trkpt>
      <trkpt lat="46.32767" lon="2.49219">
        <ele>428.4</ele>
        <time>2019-09-11T15:59:55Z</time>
      </trkpt>
      <trkpt lat="46.32764" lon="2.49215">
        <ele>428.4</ele>
        <time>2019-09-11T15:59:56Z</time>
      </trkpt>
      <trkpt lat="46.32745" lon="2.49193">
        <ele>428.89</ele>
        <time>2019-09-11T16:00:01Z</time>
      </trkpt>
      <trkpt lat="46.32737" lon="2.49186">
        <ele>428.89</ele>
        <time>2019-09-11T16:00:03Z</time>
      </trkpt>
      <trkpt lat="46.32696" lon="2.49141">
        <ele>430.33</ele>
        <time>2019-09-11T16:00:18Z</time>
      </trkpt>
      <trkpt lat="46.3268" lon="2.49071">
        <ele>430.81</ele>
        <time>2019-09-11T16:00:31Z</time>
      </trkpt>
      <trkpt lat="46.32646" lon="2.4896">
        <ele>432.25</ele>
        <time>2019-09-11T16:00:49Z</time>
      </trkpt>
      <trkpt lat="46.32604" lon="2.48838">
        <ele>433.21</ele>
        <time>2019-09-11T16:01:08Z</time>
      </trkpt>
      <trkpt lat="46.32551" lon="2.48687">
        <ele>434.65</ele>
        <time>2019-09-11T16:01:31Z</time>
      </trkpt>
      <trkpt lat="46.32515" lon="2.48555">
        <ele>435.61</ele>
        <time>2019-09-11T16:01:49Z</time>
      </trkpt>
      <trkpt lat="46.32485" lon="2.48392">
        <ele>436.58</ele>
        <time>2019-09-11T16:02:10Z</time>
      </trkpt>
      <trkpt lat="46.32454" lon="2.48275">
        <ele>436.58</ele>
        <time>2019-09-11T16:02:25Z</time>
      </trkpt>
      <trkpt lat="46.32418" lon="2.48133">
        <ele>436.58</ele>
        <time>2019-09-11T16:02:42Z</time>
      </trkpt>
      <trkpt lat="46.3237" lon="2.47972">
        <ele>436.58</ele>
        <time>2019-09-11T16:03:01Z</time>
      </trkpt>
      <trkpt lat="46.32319" lon="2.4781">
        <ele>436.58</ele>
        <time>2019-09-11T16:03:20Z</time>
      </trkpt>
      <trkpt lat="46.3228" lon="2.47662">
        <ele>436.58</ele>
        <time>2019-09-11T16:03:38Z</time>
      </trkpt>
      <trkpt lat="46.32244" lon="2.47483">
        <ele>434.65</ele>
        <time>2019-09-11T16:03:58Z</time>
      </trkpt>
      <trkpt lat="46.32233" lon="2.47337">
        <ele>432.73</ele>
        <time>2019-09-11T16:04:13Z</time>
      </trkpt>
      <trkpt lat="46.3222" lon="2.47244">
        <ele>431.29</ele>
        <time>2019-09-11T16:04:25Z</time>
      </trkpt>
      <trkpt lat="46.32191" lon="2.4712">
        <ele>428.4</ele>
        <time>2019-09-11T16:04:37Z</time>
      </trkpt>
      <trkpt lat="46.32169" lon="2.4705">
        <ele>425.04</ele>
        <time>2019-09-11T16:04:43Z</time>
      </trkpt>
      <trkpt lat="46.3216" lon="2.47024">
        <ele>423.6</ele>
        <time>2019-09-11T16:04:45Z</time>
      </trkpt>
      <trkpt lat="46.32155" lon="2.47012">
        <ele>423.12</ele>
        <time>2019-09-11T16:04:46Z</time>
      </trkpt>
      <trkpt lat="46.32148" lon="2.47">
        <ele>422.64</ele>
        <time>2019-09-11T16:04:47Z</time>
      </trkpt>
      <trkpt lat="46.32122" lon="2.46939">
        <ele>419.27</ele>
        <time>2019-09-11T16:04:52Z</time>
      </trkpt>
      <trkpt lat="46.32118" lon="2.46926">
        <ele>419.27</ele>
        <time>2019-09-11T16:04:53Z</time>
      </trkpt>
      <trkpt lat="46.32097" lon="2.46813">
        <ele>417.35</ele>
        <time>2019-09-11T16:05:02Z</time>
      </trkpt>
      <trkpt lat="46.32096" lon="2.46802">
        <ele>416.39</ele>
        <time>2019-09-11T16:05:03Z</time>
      </trkpt>
      <trkpt lat="46.32097" lon="2.4679">
        <ele>416.39</ele>
        <time>2019-09-11T16:05:04Z</time>
      </trkpt>
      <trkpt lat="46.32103" lon="2.46756">
        <ele>415.91</ele>
        <time>2019-09-11T16:05:07Z</time>
      </trkpt>
      <trkpt lat="46.32106" lon="2.46745">
        <ele>415.91</ele>
        <time>2019-09-11T16:05:08Z</time>
      </trkpt>
      <trkpt lat="46.3211" lon="2.46736">
        <ele>415.91</ele>
        <time>2019-09-11T16:05:09Z</time>
      </trkpt>
      <trkpt lat="46.32114" lon="2.46727">
        <ele>415.91</ele>
        <time>2019-09-11T16:05:10Z</time>
      </trkpt>
      <trkpt lat="46.32118" lon="2.46718">
        <ele>415.91</ele>
        <time>2019-09-11T16:05:11Z</time>
      </trkpt>
      <trkpt lat="46.32134" lon="2.4668">
        <ele>414.95</ele>
        <time>2019-09-11T16:05:15Z</time>
      </trkpt>
      <trkpt lat="46.32143" lon="2.46663">
        <ele>414.47</ele>
        <time>2019-09-11T16:05:17Z</time>
      </trkpt>
      <trkpt lat="46.32147" lon="2.46653">
        <ele>413.98</ele>
        <time>2019-09-11T16:05:18Z</time>
      </trkpt>
      <trkpt lat="46.32148" lon="2.46642">
        <ele>413.5</ele>
        <time>2019-09-11T16:05:19Z</time>
      </trkpt>
      <trkpt lat="46.32148" lon="2.4663">
        <ele>413.5</ele>
        <time>2019-09-11T16:05:20Z</time>
      </trkpt>
      <trkpt lat="46.32148" lon="2.46619">
        <ele>413.02</ele>
        <time>2019-09-11T16:05:21Z</time>
      </trkpt>
      <trkpt lat="46.32139" lon="2.46529">
        <ele>410.62</ele>
        <time>2019-09-11T16:05:29Z</time>
      </trkpt>
      <trkpt lat="46.32137" lon="2.464">
        <ele>408.22</ele>
        <time>2019-09-11T16:05:41Z</time>
      </trkpt>
      <trkpt lat="46.3214" lon="2.46333">
        <ele>408.22</ele>
        <time>2019-09-11T16:05:48Z</time>
      </trkpt>
      <trkpt lat="46.32137" lon="2.4626">
        <ele>409.66</ele>
        <time>2019-09-11T16:05:57Z</time>
      </trkpt>
      <trkpt lat="46.32137" lon="2.46253">
        <ele>410.14</ele>
        <time>2019-09-11T16:05:58Z</time>
      </trkpt>
      <trkpt lat="46.32136" lon="2.46245">
        <ele>410.14</ele>
        <time>2019-09-11T16:05:59Z</time>
      </trkpt>
      <trkpt lat="46.32132" lon="2.46206">
        <ele>410.62</ele>
        <time>2019-09-11T16:06:04Z</time>
      </trkpt>
      <trkpt lat="46.32122" lon="2.4614">
        <ele>411.1</ele>
        <time>2019-09-11T16:06:12Z</time>
      </trkpt>
      <trkpt lat="46.3212" lon="2.46131">
        <ele>411.1</ele>
        <time>2019-09-11T16:06:13Z</time>
      </trkpt>
      <trkpt lat="46.32105" lon="2.46077">
        <ele>409.66</ele>
        <time>2019-09-11T16:06:19Z</time>
      </trkpt>
      <trkpt lat="46.32072" lon="2.45944">
        <ele>407.74</ele>
        <time>2019-09-11T16:06:33Z</time>
      </trkpt>
      <trkpt lat="46.32064" lon="2.45907">
        <ele>407.74</ele>
        <time>2019-09-11T16:06:37Z</time>
      </trkpt>
      <trkpt lat="46.32062" lon="2.45898">
        <ele>407.74</ele>
        <time>2019-09-11T16:06:38Z</time>
      </trkpt>
      <trkpt lat="46.32027" lon="2.45773">
        <ele>404.85</ele>
        <time>2019-09-11T16:06:51Z</time>
      </trkpt>
      <trkpt lat="46.32011" lon="2.45713">
        <ele>404.37</ele>
        <time>2019-09-11T16:06:57Z</time>
      </trkpt>
      <trkpt lat="46.32007" lon="2.45606">
        <ele>401.97</ele>
        <time>2019-09-11T16:07:08Z</time>
      </trkpt>
      <trkpt lat="46.32008" lon="2.45596">
        <ele>401.97</ele>
        <time>2019-09-11T16:07:09Z</time>
      </trkpt>
      <trkpt lat="46.32016" lon="2.45566">
        <ele>401.01</ele>
        <time>2019-09-11T16:07:12Z</time>
      </trkpt>
      <trkpt lat="46.32017" lon="2.45557">
        <ele>401.01</ele>
        <time>2019-09-11T16:07:13Z</time>
      </trkpt>
      <trkpt lat="46.32018" lon="2.45549">
        <ele>401.01</ele>
        <time>2019-09-11T16:07:14Z</time>
      </trkpt>
      <trkpt lat="46.32037" lon="2.45471">
        <ele>401.01</ele>
        <time>2019-09-11T16:07:23Z</time>
      </trkpt>
      <trkpt lat="46.3204" lon="2.45464">
        <ele>401.01</ele>
        <time>2019-09-11T16:07:24Z</time>
      </trkpt>
      <trkpt lat="46.32043" lon="2.45458">
        <ele>401.01</ele>
        <time>2019-09-11T16:07:25Z</time>
      </trkpt>
      <trkpt lat="46.3212" lon="2.45365">
        <ele>401.01</ele>
        <time>2019-09-11T16:07:42Z</time>
      </trkpt>
      <trkpt lat="46.32125" lon="2.4536">
        <ele>401.01</ele>
        <time>2019-09-11T16:07:43Z</time>
      </trkpt>
      <trkpt lat="46.32133" lon="2.4535">
        <ele>401.01</ele>
        <time>2019-09-11T16:07:45Z</time>
      </trkpt>
      <trkpt lat="46.32137" lon="2.45343">
        <ele>401.01</ele>
        <time>2019-09-11T16:07:46Z</time>
      </trkpt>
      <trkpt lat="46.3214" lon="2.45337">
        <ele>402.45</ele>
        <time>2019-09-11T16:07:47Z</time>
      </trkpt>
      <trkpt lat="46.32143" lon="2.4533">
        <ele>402.45</ele>
        <time>2019-09-11T16:07:48Z</time>
      </trkpt>
      <trkpt lat="46.32145" lon="2.45323">
        <ele>402.45</ele>
        <time>2019-09-11T16:07:49Z</time>
      </trkpt>
      <trkpt lat="46.32171" lon="2.45214">
        <ele>403.41</ele>
        <time>2019-09-11T16:08:03Z</time>
      </trkpt>
      <trkpt lat="46.32193" lon="2.45135">
        <ele>401.97</ele>
        <time>2019-09-11T16:08:12Z</time>
      </trkpt>
      <trkpt lat="46.32227" lon="2.4499">
        <ele>400.05</ele>
        <time>2019-09-11T16:08:27Z</time>
      </trkpt>
      <trkpt lat="46.32239" lon="2.44863">
        <ele>398.6</ele>
        <time>2019-09-11T16:08:40Z</time>
      </trkpt>
      <trkpt lat="46.32232" lon="2.44778">
        <ele>398.12</ele>
        <time>2019-09-11T16:08:49Z</time>
      </trkpt>
      <trkpt lat="46.32225" lon="2.44699">
        <ele>398.12</ele>
        <time>2019-09-11T16:09:01Z</time>
      </trkpt>
      <trkpt lat="46.32227" lon="2.44698">
        <ele>398.12</ele>
        <time>2019-09-11T16:09:02Z</time>
      </trkpt>
      <trkpt lat="46.32228" lon="2.44697">
        <ele>398.12</ele>
        <time>2019-09-11T16:09:03Z</time>
      </trkpt>
      <trkpt lat="46.3223" lon="2.44697">
        <ele>398.12</ele>
        <time>2019-09-11T16:09:04Z</time>
      </trkpt>
      <trkpt lat="46.32232" lon="2.44696">
        <ele>398.12</ele>
        <time>2019-09-11T16:09:05Z</time>
      </trkpt>
      <trkpt lat="46.32234" lon="2.44694">
        <ele>398.12</ele>
        <time>2019-09-11T16:09:06Z</time>
      </trkpt>
      <trkpt lat="46.32267" lon="2.44681">
        <ele>398.12</ele>
        <time>2019-09-11T16:09:16Z</time>
      </trkpt>
      <trkpt lat="46.32276" lon="2.44678">
        <ele>398.12</ele>
        <time>2019-09-11T16:09:18Z</time>
      </trkpt>
      <trkpt lat="46.32279" lon="2.44676">
        <ele>398.12</ele>
        <time>2019-09-11T16:09:19Z</time>
      </trkpt>
      <trkpt lat="46.32282" lon="2.4467">
        <ele>398.12</ele>
        <time>2019-09-11T16:09:20Z</time>
      </trkpt>
      <trkpt lat="46.32283" lon="2.44664">
        <ele>397.64</ele>
        <time>2019-09-11T16:09:21Z</time>
      </trkpt>
      <trkpt lat="46.32283" lon="2.44656">
        <ele>397.64</ele>
        <time>2019-09-11T16:09:22Z</time>
      </trkpt>
      <trkpt lat="46.32283" lon="2.44648">
        <ele>397.64</ele>
        <time>2019-09-11T16:09:23Z</time>
      </trkpt>
      <trkpt lat="46.32282" lon="2.4464">
        <ele>397.64</ele>
        <time>2019-09-11T16:09:24Z</time>
      </trkpt>
      <trkpt lat="46.3228" lon="2.44612">
        <ele>397.64</ele>
        <time>2019-09-11T16:09:28Z</time>
      </trkpt>
      <trkpt lat="46.3228" lon="2.44606">
        <ele>397.64</ele>
        <time>2019-09-11T16:09:29Z</time>
      </trkpt>
      <trkpt lat="46.32281" lon="2.446">
        <ele>397.64</ele>
        <time>2019-09-11T16:09:30Z</time>
      </trkpt>
      <trkpt lat="46.32282" lon="2.44594">
        <ele>397.64</ele>
        <time>2019-09-11T16:09:31Z</time>
      </trkpt>
      <trkpt lat="46.32284" lon="2.44588">
        <ele>397.64</ele>
        <time>2019-09-11T16:09:32Z</time>
      </trkpt>
      <trkpt lat="46.32285" lon="2.44582">
        <ele>399.08</ele>
        <time>2019-09-11T16:09:33Z</time>
      </trkpt>
      <trkpt lat="46.32287" lon="2.44576">
        <ele>399.08</ele>
        <time>2019-09-11T16:09:34Z</time>
      </trkpt>
      <trkpt lat="46.32288" lon="2.44571">
        <ele>399.08</ele>
        <time>2019-09-11T16:09:35Z</time>
      </trkpt>
      <trkpt lat="46.32289" lon="2.44566">
        <ele>399.57</ele>
        <time>2019-09-11T16:09:36Z</time>
      </trkpt>
      <trkpt lat="46.3229" lon="2.4456">
        <ele>399.57</ele>
        <time>2019-09-11T16:09:37Z</time>
      </trkpt>
      <trkpt lat="46.32292" lon="2.44555">
        <ele>399.57</ele>
        <time>2019-09-11T16:09:38Z</time>
      </trkpt>
      <trkpt lat="46.32294" lon="2.44549">
        <ele>400.05</ele>
        <time>2019-09-11T16:09:39Z</time>
      </trkpt>
      <trkpt lat="46.32309" lon="2.44495">
        <ele>400.53</ele>
        <time>2019-09-11T16:09:48Z</time>
      </trkpt>
      <trkpt lat="46.32325" lon="2.44418">
        <ele>402.45</ele>
        <time>2019-09-11T16:10:02Z</time>
      </trkpt>
      <trkpt lat="46.32328" lon="2.44388">
        <ele>402.93</ele>
        <time>2019-09-11T16:10:07Z</time>
      </trkpt>
      <trkpt lat="46.32334" lon="2.44364">
        <ele>402.93</ele>
        <time>2019-09-11T16:10:11Z</time>
      </trkpt>
      <trkpt lat="46.32369" lon="2.44267">
        <ele>404.37</ele>
        <time>2019-09-11T16:10:27Z</time>
      </trkpt>
      <trkpt lat="46.32371" lon="2.44262">
        <ele>404.37</ele>
        <time>2019-09-11T16:10:28Z</time>
      </trkpt>
      <trkpt lat="46.32398" lon="2.44198">
        <ele>404.85</ele>
        <time>2019-09-11T16:10:42Z</time>
      </trkpt>
      <trkpt lat="46.32413" lon="2.44155">
        <ele>405.81</ele>
        <time>2019-09-11T16:10:51Z</time>
      </trkpt>
      <trkpt lat="46.32426" lon="2.441">
        <ele>407.26</ele>
        <time>2019-09-11T16:11:02Z</time>
      </trkpt>
      <trkpt lat="46.32427" lon="2.44037">
        <ele>407.74</ele>
        <time>2019-09-11T16:11:13Z</time>
      </trkpt>
      <trkpt lat="46.3243" lon="2.43977">
        <ele>408.22</ele>
        <time>2019-09-11T16:11:23Z</time>
      </trkpt>
      <trkpt lat="46.32442" lon="2.43922">
        <ele>409.18</ele>
        <time>2019-09-11T16:11:33Z</time>
      </trkpt>
      <trkpt lat="46.32446" lon="2.4391">
        <ele>409.18</ele>
        <time>2019-09-11T16:11:35Z</time>
      </trkpt>
      <trkpt lat="46.32449" lon="2.43904">
        <ele>410.14</ele>
        <time>2019-09-11T16:11:36Z</time>
      </trkpt>
      <trkpt lat="46.32452" lon="2.439">
        <ele>410.14</ele>
        <time>2019-09-11T16:11:37Z</time>
      </trkpt>
      <trkpt lat="46.32456" lon="2.43896">
        <ele>410.14</ele>
        <time>2019-09-11T16:11:38Z</time>
      </trkpt>
      <trkpt lat="46.32496" lon="2.43856">
        <ele>411.1</ele>
        <time>2019-09-11T16:11:50Z</time>
      </trkpt>
      <trkpt lat="46.32543" lon="2.43785">
        <ele>413.5</ele>
        <time>2019-09-11T16:12:08Z</time>
      </trkpt>
      <trkpt lat="46.32539" lon="2.43757">
        <ele>414.47</ele>
        <time>2019-09-11T16:12:16Z</time>
      </trkpt>
      <trkpt lat="46.32538" lon="2.43755">
        <ele>414.47</ele>
        <time>2019-09-11T16:12:17Z</time>
      </trkpt>
      <trkpt lat="46.32537" lon="2.43755">
        <ele>414.47</ele>
        <time>2019-09-11T16:12:18Z</time>
      </trkpt>
      <trkpt lat="46.32536" lon="2.43755">
        <ele>414.47</ele>
        <time>2019-09-11T16:12:19Z</time>
      </trkpt>
      <trkpt lat="46.32534" lon="2.43754">
        <ele>414.47</ele>
        <time>2019-09-11T16:12:20Z</time>
      </trkpt>
      <trkpt lat="46.32532" lon="2.43754">
        <ele>414.95</ele>
        <time>2019-09-11T16:12:21Z</time>
      </trkpt>
      <trkpt lat="46.3253" lon="2.43753">
        <ele>414.95</ele>
        <time>2019-09-11T16:12:22Z</time>
      </trkpt>
      <trkpt lat="46.32528" lon="2.43751">
        <ele>414.95</ele>
        <time>2019-09-11T16:12:23Z</time>
      </trkpt>
      <trkpt lat="46.32526" lon="2.43749">
        <ele>414.95</ele>
        <time>2019-09-11T16:12:24Z</time>
      </trkpt>
      <trkpt lat="46.3249" lon="2.43729">
        <ele>416.87</ele>
        <time>2019-09-11T16:12:37Z</time>
      </trkpt>
      <trkpt lat="46.32445" lon="2.43728">
        <ele>418.31</ele>
        <time>2019-09-11T16:12:49Z</time>
      </trkpt>
      <trkpt lat="46.32441" lon="2.43725">
        <ele>418.31</ele>
        <time>2019-09-11T16:12:50Z</time>
      </trkpt>
      <trkpt lat="46.32438" lon="2.43722">
        <ele>418.31</ele>
        <time>2019-09-11T16:12:51Z</time>
      </trkpt>
      <trkpt lat="46.32435" lon="2.43719">
        <ele>418.79</ele>
        <time>2019-09-11T16:12:52Z</time>
      </trkpt>
      <trkpt lat="46.32433" lon="2.43715">
        <ele>418.79</ele>
        <time>2019-09-11T16:12:53Z</time>
      </trkpt>
      <trkpt lat="46.32392" lon="2.43664">
        <ele>420.23</ele>
        <time>2019-09-11T16:13:08Z</time>
      </trkpt>
      <trkpt lat="46.32356" lon="2.43623">
        <ele>422.16</ele>
        <time>2019-09-11T16:13:22Z</time>
      </trkpt>
      <trkpt lat="46.32323" lon="2.4358">
        <ele>422.64</ele>
        <time>2019-09-11T16:13:36Z</time>
      </trkpt>
      <trkpt lat="46.32278" lon="2.43526">
        <ele>422.64</ele>
        <time>2019-09-11T16:13:51Z</time>
      </trkpt>
      <trkpt lat="46.32243" lon="2.43497">
        <ele>423.12</ele>
        <time>2019-09-11T16:14:02Z</time>
      </trkpt>
      <trkpt lat="46.32204" lon="2.43444">
        <ele>423.6</ele>
        <time>2019-09-11T16:14:15Z</time>
      </trkpt>
      <trkpt lat="46.32198" lon="2.43434">
        <ele>423.6</ele>
        <time>2019-09-11T16:14:17Z</time>
      </trkpt>
      <trkpt lat="46.32196" lon="2.43428">
        <ele>423.6</ele>
        <time>2019-09-11T16:14:18Z</time>
      </trkpt>
      <trkpt lat="46.32187" lon="2.43409">
        <ele>422.64</ele>
        <time>2019-09-11T16:14:21Z</time>
      </trkpt>
      <trkpt lat="46.32183" lon="2.43404">
        <ele>422.64</ele>
        <time>2019-09-11T16:14:22Z</time>
      </trkpt>
      <trkpt lat="46.32165" lon="2.43388">
        <ele>421.68</ele>
        <time>2019-09-11T16:14:26Z</time>
      </trkpt>
      <trkpt lat="46.32111" lon="2.43366">
        <ele>420.23</ele>
        <time>2019-09-11T16:14:36Z</time>
      </trkpt>
      <trkpt lat="46.32069" lon="2.43348">
        <ele>417.83</ele>
        <time>2019-09-11T16:14:43Z</time>
      </trkpt>
      <trkpt lat="46.32063" lon="2.43345">
        <ele>417.35</ele>
        <time>2019-09-11T16:14:44Z</time>
      </trkpt>
      <trkpt lat="46.32002" lon="2.4333">
        <ele>413.98</ele>
        <time>2019-09-11T16:14:52Z</time>
      </trkpt>
      <trkpt lat="46.31942" lon="2.43337">
        <ele>411.1</ele>
        <time>2019-09-11T16:14:59Z</time>
      </trkpt>
      <trkpt lat="46.31933" lon="2.43339">
        <ele>411.1</ele>
        <time>2019-09-11T16:15:00Z</time>
      </trkpt>
      <trkpt lat="46.31901" lon="2.43343">
        <ele>409.66</ele>
        <time>2019-09-11T16:15:04Z</time>
      </trkpt>
      <trkpt lat="46.31893" lon="2.43343">
        <ele>409.66</ele>
        <time>2019-09-11T16:15:05Z</time>
      </trkpt>
      <trkpt lat="46.31886" lon="2.43342">
        <ele>409.66</ele>
        <time>2019-09-11T16:15:06Z</time>
      </trkpt>
      <trkpt lat="46.3188" lon="2.43342">
        <ele>409.18</ele>
        <time>2019-09-11T16:15:07Z</time>
      </trkpt>
      <trkpt lat="46.31874" lon="2.43344">
        <ele>409.18</ele>
        <time>2019-09-11T16:15:08Z</time>
      </trkpt>
      <trkpt lat="46.31854" lon="2.43349">
        <ele>410.62</ele>
        <time>2019-09-11T16:15:12Z</time>
      </trkpt>
      <trkpt lat="46.3185" lon="2.4335">
        <ele>411.1</ele>
        <time>2019-09-11T16:15:13Z</time>
      </trkpt>
      <trkpt lat="46.31823" lon="2.4337">
        <ele>411.58</ele>
        <time>2019-09-11T16:15:22Z</time>
      </trkpt>
      <trkpt lat="46.31822" lon="2.43374">
        <ele>411.58</ele>
        <time>2019-09-11T16:15:31Z</time>
      </trkpt>
      <trkpt lat="46.31822" lon="2.43379">
        <ele>412.06</ele>
        <time>2019-09-11T16:15:47Z</time>
      </trkpt>
      <trkpt lat="46.31819" lon="2.43416">
        <ele>413.02</ele>
        <time>2019-09-11T16:15:57Z</time>
      </trkpt>
      <trkpt lat="46.31808" lon="2.43499">
        <ele>414.95</ele>
        <time>2019-09-11T16:16:13Z</time>
      </trkpt>
      <trkpt lat="46.31792" lon="2.43536">
        <ele>418.79</ele>
        <time>2019-09-11T16:16:23Z</time>
      </trkpt>
      <trkpt lat="46.31789" lon="2.43539">
        <ele>418.79</ele>
        <time>2019-09-11T16:16:24Z</time>
      </trkpt>
      <trkpt lat="46.31786" lon="2.4354">
        <ele>419.27</ele>
        <time>2019-09-11T16:16:25Z</time>
      </trkpt>
      <trkpt lat="46.31757" lon="2.43547">
        <ele>422.64</ele>
        <time>2019-09-11T16:16:36Z</time>
      </trkpt>
      <trkpt lat="46.31724" lon="2.43551">
        <ele>425.52</ele>
        <time>2019-09-11T16:16:50Z</time>
      </trkpt>
      <trkpt lat="46.31703" lon="2.43549">
        <ele>426.96</ele>
        <time>2019-09-11T16:16:59Z</time>
      </trkpt>
      <trkpt lat="46.317" lon="2.43549">
        <ele>426.96</ele>
        <time>2019-09-11T16:17:00Z</time>
      </trkpt>
      <trkpt lat="46.31664" lon="2.43541">
        <ele>428.89</ele>
        <time>2019-09-11T16:17:14Z</time>
      </trkpt>
      <trkpt lat="46.31633" lon="2.43524">
        <ele>431.29</ele>
        <time>2019-09-11T16:17:27Z</time>
      </trkpt>
      <trkpt lat="46.31606" lon="2.43511">
        <ele>431.77</ele>
        <time>2019-09-11T16:17:39Z</time>
      </trkpt>
      <trkpt lat="46.31571" lon="2.43493">
        <ele>433.69</ele>
        <time>2019-09-11T16:17:52Z</time>
      </trkpt>
      <trkpt lat="46.31534" lon="2.43468">
        <ele>434.65</ele>
        <time>2019-09-11T16:18:06Z</time>
      </trkpt>
      <trkpt lat="46.31503" lon="2.43448">
        <ele>436.58</ele>
        <time>2019-09-11T16:18:18Z</time>
      </trkpt>
      <trkpt lat="46.31469" lon="2.43432">
        <ele>438.98</ele>
        <time>2019-09-11T16:18:31Z</time>
      </trkpt>
      <trkpt lat="46.31439" lon="2.43424">
        <ele>441.38</ele>
        <time>2019-09-11T16:18:43Z</time>
      </trkpt>
      <trkpt lat="46.31408" lon="2.43414">
        <ele>444.27</ele>
        <time>2019-09-11T16:18:57Z</time>
      </trkpt>
      <trkpt lat="46.3138" lon="2.43402">
        <ele>446.67</ele>
        <time>2019-09-11T16:19:10Z</time>
      </trkpt>
      <trkpt lat="46.31358" lon="2.43379">
        <ele>447.63</ele>
        <time>2019-09-11T16:19:21Z</time>
      </trkpt>
      <trkpt lat="46.31337" lon="2.4335">
        <ele>449.55</ele>
        <time>2019-09-11T16:19:33Z</time>
      </trkpt>
      <trkpt lat="46.31318" lon="2.43328">
        <ele>451</ele>
        <time>2019-09-11T16:19:44Z</time>
      </trkpt>
      <trkpt lat="46.31307" lon="2.43314">
        <ele>452.44</ele>
        <time>2019-09-11T16:19:50Z</time>
      </trkpt>
      <trkpt lat="46.31284" lon="2.43291">
        <ele>454.84</ele>
        <time>2019-09-11T16:20:03Z</time>
      </trkpt>
      <trkpt lat="46.31258" lon="2.43278">
        <ele>456.76</ele>
        <time>2019-09-11T16:20:15Z</time>
      </trkpt>
      <trkpt lat="46.31218" lon="2.43257">
        <ele>459.17</ele>
        <time>2019-09-11T16:20:32Z</time>
      </trkpt>
      <trkpt lat="46.3119" lon="2.43248">
        <ele>462.05</ele>
        <time>2019-09-11T16:20:45Z</time>
      </trkpt>
      <trkpt lat="46.31168" lon="2.43232">
        <ele>464.45</ele>
        <time>2019-09-11T16:20:57Z</time>
      </trkpt>
      <trkpt lat="46.31149" lon="2.43205">
        <ele>467.34</ele>
        <time>2019-09-11T16:21:10Z</time>
      </trkpt>
      <trkpt lat="46.31124" lon="2.43179">
        <ele>469.74</ele>
        <time>2019-09-11T16:21:23Z</time>
      </trkpt>
      <trkpt lat="46.31105" lon="2.43158">
        <ele>472.63</ele>
        <time>2019-09-11T16:21:34Z</time>
      </trkpt>
      <trkpt lat="46.31089" lon="2.43137">
        <ele>475.03</ele>
        <time>2019-09-11T16:21:44Z</time>
      </trkpt>
      <trkpt lat="46.31087" lon="2.43135">
        <ele>475.03</ele>
        <time>2019-09-11T16:21:45Z</time>
      </trkpt>
      <trkpt lat="46.31086" lon="2.43133">
        <ele>475.51</ele>
        <time>2019-09-11T16:21:46Z</time>
      </trkpt>
      <trkpt lat="46.31069" lon="2.43095">
        <ele>478.39</ele>
        <time>2019-09-11T16:22:01Z</time>
      </trkpt>
      <trkpt lat="46.31054" lon="2.43063">
        <ele>481.28</ele>
        <time>2019-09-11T16:22:14Z</time>
      </trkpt>
      <trkpt lat="46.31039" lon="2.43034">
        <ele>484.64</ele>
        <time>2019-09-11T16:22:27Z</time>
      </trkpt>
      <trkpt lat="46.31018" lon="2.43006">
        <ele>486.56</ele>
        <time>2019-09-11T16:22:39Z</time>
      </trkpt>
      <trkpt lat="46.30975" lon="2.42979">
        <ele>487.53</ele>
        <time>2019-09-11T16:22:52Z</time>
      </trkpt>
      <trkpt lat="46.30928" lon="2.42968">
        <ele>487.53</ele>
        <time>2019-09-11T16:23:06Z</time>
      </trkpt>
      <trkpt lat="46.30927" lon="2.42967">
        <ele>487.53</ele>
        <time>2019-09-11T16:23:07Z</time>
      </trkpt>
      <trkpt lat="46.30925" lon="2.42967">
        <ele>487.53</ele>
        <time>2019-09-11T16:23:19Z</time>
      </trkpt>
      <trkpt lat="46.30925" lon="2.42966">
        <ele>487.53</ele>
        <time>2019-09-11T16:23:42Z</time>
      </trkpt>
      <trkpt lat="46.30924" lon="2.42967">
        <ele>487.53</ele>
        <time>2019-09-11T16:23:56Z</time>
      </trkpt>
      <trkpt lat="46.30922" lon="2.4297">
        <ele>488.01</ele>
        <time>2019-09-11T16:24:31Z</time>
      </trkpt>
      <trkpt lat="46.30919" lon="2.42971">
        <ele>488.01</ele>
        <time>2019-09-11T16:25:11Z</time>
      </trkpt>
      <trkpt lat="46.30922" lon="2.42962">
        <ele>488.01</ele>
        <time>2019-09-11T16:25:18Z</time>
      </trkpt>
      <trkpt lat="46.30923" lon="2.42959">
        <ele>488.01</ele>
        <time>2019-09-11T16:25:19Z</time>
      </trkpt>
      <trkpt lat="46.30924" lon="2.42957">
        <ele>488.01</ele>
        <time>2019-09-11T16:25:20Z</time>
      </trkpt>
      <trkpt lat="46.30926" lon="2.42954">
        <ele>488.01</ele>
        <time>2019-09-11T16:25:21Z</time>
      </trkpt>
      <trkpt lat="46.30928" lon="2.42952">
        <ele>488.01</ele>
        <time>2019-09-11T16:25:22Z</time>
      </trkpt>
      <trkpt lat="46.3093" lon="2.42951">
        <ele>488.01</ele>
        <time>2019-09-11T16:25:23Z</time>
      </trkpt>
      <trkpt lat="46.30932" lon="2.42949">
        <ele>488.01</ele>
        <time>2019-09-11T16:25:24Z</time>
      </trkpt>
      <trkpt lat="46.30935" lon="2.42948">
        <ele>488.01</ele>
        <time>2019-09-11T16:25:25Z</time>
      </trkpt>
      <trkpt lat="46.30972" lon="2.42924">
        <ele>488.49</ele>
        <time>2019-09-11T16:25:38Z</time>
      </trkpt>
      <trkpt lat="46.31005" lon="2.42899">
        <ele>488.49</ele>
        <time>2019-09-11T16:25:49Z</time>
      </trkpt>
      <trkpt lat="46.31016" lon="2.42892">
        <ele>488.49</ele>
        <time>2019-09-11T16:25:52Z</time>
      </trkpt>
      <trkpt lat="46.31019" lon="2.4289">
        <ele>488.49</ele>
        <time>2019-09-11T16:25:53Z</time>
      </trkpt>
      <trkpt lat="46.31033" lon="2.42879">
        <ele>487.05</ele>
        <time>2019-09-11T16:25:57Z</time>
      </trkpt>
      <trkpt lat="46.31074" lon="2.42847">
        <ele>484.16</ele>
        <time>2019-09-11T16:26:08Z</time>
      </trkpt>
      <trkpt lat="46.31081" lon="2.42842">
        <ele>483.68</ele>
        <time>2019-09-11T16:26:10Z</time>
      </trkpt>
      <trkpt lat="46.31118" lon="2.42813">
        <ele>480.32</ele>
        <time>2019-09-11T16:26:18Z</time>
      </trkpt>
      <trkpt lat="46.31172" lon="2.42751">
        <ele>476.95</ele>
        <time>2019-09-11T16:26:28Z</time>
      </trkpt>
      <trkpt lat="46.3121" lon="2.42679">
        <ele>473.59</ele>
        <time>2019-09-11T16:26:36Z</time>
      </trkpt>
      <trkpt lat="46.31217" lon="2.42665">
        <ele>472.63</ele>
        <time>2019-09-11T16:26:38Z</time>
      </trkpt>
      <trkpt lat="46.31271" lon="2.42554">
        <ele>469.26</ele>
        <time>2019-09-11T16:26:51Z</time>
      </trkpt>
      <trkpt lat="46.31291" lon="2.42506">
        <ele>467.82</ele>
        <time>2019-09-11T16:26:56Z</time>
      </trkpt>
      <trkpt lat="46.31294" lon="2.42495">
        <ele>467.82</ele>
        <time>2019-09-11T16:26:57Z</time>
      </trkpt>
      <trkpt lat="46.31295" lon="2.42484">
        <ele>467.34</ele>
        <time>2019-09-11T16:26:58Z</time>
      </trkpt>
      <trkpt lat="46.31301" lon="2.4241">
        <ele>464.93</ele>
        <time>2019-09-11T16:27:04Z</time>
      </trkpt>
      <trkpt lat="46.31303" lon="2.42397">
        <ele>464.93</ele>
        <time>2019-09-11T16:27:05Z</time>
      </trkpt>
      <trkpt lat="46.31305" lon="2.42384">
        <ele>463.97</ele>
        <time>2019-09-11T16:27:06Z</time>
      </trkpt>
      <trkpt lat="46.31312" lon="2.42358">
        <ele>463.49</ele>
        <time>2019-09-11T16:27:08Z</time>
      </trkpt>
      <trkpt lat="46.31314" lon="2.42344">
        <ele>463.01</ele>
        <time>2019-09-11T16:27:09Z</time>
      </trkpt>
      <trkpt lat="46.31316" lon="2.42331">
        <ele>462.53</ele>
        <time>2019-09-11T16:27:10Z</time>
      </trkpt>
      <trkpt lat="46.31319" lon="2.42259">
        <ele>459.17</ele>
        <time>2019-09-11T16:27:15Z</time>
      </trkpt>
      <trkpt lat="46.31321" lon="2.42245">
        <ele>459.17</ele>
        <time>2019-09-11T16:27:16Z</time>
      </trkpt>
      <trkpt lat="46.31323" lon="2.42232">
        <ele>458.69</ele>
        <time>2019-09-11T16:27:17Z</time>
      </trkpt>
      <trkpt lat="46.31328" lon="2.42218">
        <ele>457.72</ele>
        <time>2019-09-11T16:27:18Z</time>
      </trkpt>
      <trkpt lat="46.31334" lon="2.42207">
        <ele>456.76</ele>
        <time>2019-09-11T16:27:19Z</time>
      </trkpt>
      <trkpt lat="46.31341" lon="2.42195">
        <ele>456.28</ele>
        <time>2019-09-11T16:27:20Z</time>
      </trkpt>
      <trkpt lat="46.31348" lon="2.42185">
        <ele>456.28</ele>
        <time>2019-09-11T16:27:21Z</time>
      </trkpt>
      <trkpt lat="46.31382" lon="2.42128">
        <ele>453.4</ele>
        <time>2019-09-11T16:27:26Z</time>
      </trkpt>
      <trkpt lat="46.31408" lon="2.42088">
        <ele>450.03</ele>
        <time>2019-09-11T16:27:30Z</time>
      </trkpt>
      <trkpt lat="46.31419" lon="2.42073">
        <ele>446.67</ele>
        <time>2019-09-11T16:27:33Z</time>
      </trkpt>
      <trkpt lat="46.31421" lon="2.42071">
        <ele>446.67</ele>
        <time>2019-09-11T16:27:34Z</time>
      </trkpt>
      <trkpt lat="46.31423" lon="2.42072">
        <ele>446.19</ele>
        <time>2019-09-11T16:27:35Z</time>
      </trkpt>
      <trkpt lat="46.31425" lon="2.42075">
        <ele>446.67</ele>
        <time>2019-09-11T16:27:36Z</time>
      </trkpt>
      <trkpt lat="46.31426" lon="2.42079">
        <ele>446.19</ele>
        <time>2019-09-11T16:27:37Z</time>
      </trkpt>
      <trkpt lat="46.31428" lon="2.42085">
        <ele>446.19</ele>
        <time>2019-09-11T16:27:38Z</time>
      </trkpt>
      <trkpt lat="46.31431" lon="2.4209">
        <ele>446.19</ele>
        <time>2019-09-11T16:27:39Z</time>
      </trkpt>
      <trkpt lat="46.31434" lon="2.42095">
        <ele>445.71</ele>
        <time>2019-09-11T16:27:40Z</time>
      </trkpt>
      <trkpt lat="46.31439" lon="2.421">
        <ele>445.71</ele>
        <time>2019-09-11T16:27:41Z</time>
      </trkpt>
      <trkpt lat="46.31444" lon="2.42104">
        <ele>445.23</ele>
        <time>2019-09-11T16:27:42Z</time>
      </trkpt>
      <trkpt lat="46.3145" lon="2.42107">
        <ele>445.23</ele>
        <time>2019-09-11T16:27:43Z</time>
      </trkpt>
      <trkpt lat="46.31462" lon="2.42116">
        <ele>443.79</ele>
        <time>2019-09-11T16:27:45Z</time>
      </trkpt>
      <trkpt lat="46.31524" lon="2.42158">
        <ele>440.9</ele>
        <time>2019-09-11T16:27:55Z</time>
      </trkpt>
      <trkpt lat="46.31558" lon="2.4218">
        <ele>439.46</ele>
        <time>2019-09-11T16:28:00Z</time>
      </trkpt>
      <trkpt lat="46.31577" lon="2.42194">
        <ele>437.06</ele>
        <time>2019-09-11T16:28:03Z</time>
      </trkpt>
      <trkpt lat="46.31582" lon="2.422">
        <ele>436.58</ele>
        <time>2019-09-11T16:28:04Z</time>
      </trkpt>
      <trkpt lat="46.31586" lon="2.42206">
        <ele>436.1</ele>
        <time>2019-09-11T16:28:05Z</time>
      </trkpt>
      <trkpt lat="46.31589" lon="2.42214">
        <ele>435.61</ele>
        <time>2019-09-11T16:28:06Z</time>
      </trkpt>
      <trkpt lat="46.31593" lon="2.42221">
        <ele>435.61</ele>
        <time>2019-09-11T16:28:07Z</time>
      </trkpt>
      <trkpt lat="46.31597" lon="2.42229">
        <ele>434.65</ele>
        <time>2019-09-11T16:28:08Z</time>
      </trkpt>
      <trkpt lat="46.31603" lon="2.42236">
        <ele>434.17</ele>
        <time>2019-09-11T16:28:09Z</time>
      </trkpt>
      <trkpt lat="46.31609" lon="2.42244">
        <ele>433.69</ele>
        <time>2019-09-11T16:28:10Z</time>
      </trkpt>
      <trkpt lat="46.31629" lon="2.42271">
        <ele>430.81</ele>
        <time>2019-09-11T16:28:14Z</time>
      </trkpt>
      <trkpt lat="46.3164" lon="2.42281">
        <ele>429.85</ele>
        <time>2019-09-11T16:28:17Z</time>
      </trkpt>
      <trkpt lat="46.31645" lon="2.42281">
        <ele>429.85</ele>
        <time>2019-09-11T16:28:18Z</time>
      </trkpt>
      <trkpt lat="46.31649" lon="2.4228">
        <ele>429.37</ele>
        <time>2019-09-11T16:28:19Z</time>
      </trkpt>
      <trkpt lat="46.31666" lon="2.42279">
        <ele>428.89</ele>
        <time>2019-09-11T16:28:22Z</time>
      </trkpt>
      <trkpt lat="46.31671" lon="2.4228">
        <ele>428.89</ele>
        <time>2019-09-11T16:28:23Z</time>
      </trkpt>
      <trkpt lat="46.31676" lon="2.42282">
        <ele>428.89</ele>
        <time>2019-09-11T16:28:24Z</time>
      </trkpt>
      <trkpt lat="46.31686" lon="2.42287">
        <ele>428.89</ele>
        <time>2019-09-11T16:28:26Z</time>
      </trkpt>
      <trkpt lat="46.3169" lon="2.42291">
        <ele>428.4</ele>
        <time>2019-09-11T16:28:27Z</time>
      </trkpt>
      <trkpt lat="46.31694" lon="2.42297">
        <ele>428.4</ele>
        <time>2019-09-11T16:28:28Z</time>
      </trkpt>
      <trkpt lat="46.31696" lon="2.42304">
        <ele>428.4</ele>
        <time>2019-09-11T16:28:29Z</time>
      </trkpt>
      <trkpt lat="46.31698" lon="2.42312">
        <ele>428.4</ele>
        <time>2019-09-11T16:28:30Z</time>
      </trkpt>
      <trkpt lat="46.317" lon="2.42319">
        <ele>428.4</ele>
        <time>2019-09-11T16:28:31Z</time>
      </trkpt>
      <trkpt lat="46.31702" lon="2.42326">
        <ele>428.4</ele>
        <time>2019-09-11T16:28:32Z</time>
      </trkpt>
      <trkpt lat="46.31705" lon="2.42331">
        <ele>428.4</ele>
        <time>2019-09-11T16:28:33Z</time>
      </trkpt>
      <trkpt lat="46.31708" lon="2.42337">
        <ele>428.4</ele>
        <time>2019-09-11T16:28:34Z</time>
      </trkpt>
      <trkpt lat="46.31711" lon="2.4234">
        <ele>428.4</ele>
        <time>2019-09-11T16:28:35Z</time>
      </trkpt>
      <trkpt lat="46.31714" lon="2.42341">
        <ele>428.4</ele>
        <time>2019-09-11T16:28:36Z</time>
      </trkpt>
      <trkpt lat="46.31717" lon="2.42341">
        <ele>428.4</ele>
        <time>2019-09-11T16:28:37Z</time>
      </trkpt>
      <trkpt lat="46.31719" lon="2.42339">
        <ele>428.4</ele>
        <time>2019-09-11T16:28:38Z</time>
      </trkpt>
      <trkpt lat="46.31725" lon="2.42333">
        <ele>429.85</ele>
        <time>2019-09-11T16:28:41Z</time>
      </trkpt>
      <trkpt lat="46.3174" lon="2.42316">
        <ele>433.21</ele>
        <time>2019-09-11T16:28:51Z</time>
      </trkpt>
      <trkpt lat="46.31758" lon="2.42298">
        <ele>436.58</ele>
        <time>2019-09-11T16:29:03Z</time>
      </trkpt>
      <trkpt lat="46.31779" lon="2.42276">
        <ele>439.46</ele>
        <time>2019-09-11T16:29:17Z</time>
      </trkpt>
      <trkpt lat="46.31796" lon="2.42252">
        <ele>442.34</ele>
        <time>2019-09-11T16:29:31Z</time>
      </trkpt>
      <trkpt lat="46.31812" lon="2.42226">
        <ele>445.23</ele>
        <time>2019-09-11T16:29:46Z</time>
      </trkpt>
      <trkpt lat="46.31814" lon="2.42225">
        <ele>445.23</ele>
        <time>2019-09-11T16:29:47Z</time>
      </trkpt>
      <trkpt lat="46.31816" lon="2.42224">
        <ele>445.71</ele>
        <time>2019-09-11T16:29:48Z</time>
      </trkpt>
      <trkpt lat="46.31817" lon="2.42223">
        <ele>446.19</ele>
        <time>2019-09-11T16:29:49Z</time>
      </trkpt>
      <trkpt lat="46.31818" lon="2.42222">
        <ele>446.19</ele>
        <time>2019-09-11T16:29:50Z</time>
      </trkpt>
      <trkpt lat="46.3182" lon="2.42221">
        <ele>446.19</ele>
        <time>2019-09-11T16:29:51Z</time>
      </trkpt>
      <trkpt lat="46.31846" lon="2.42216">
        <ele>448.59</ele>
        <time>2019-09-11T16:30:04Z</time>
      </trkpt>
      <trkpt lat="46.31878" lon="2.42212">
        <ele>449.07</ele>
        <time>2019-09-11T16:30:17Z</time>
      </trkpt>
      <trkpt lat="46.31907" lon="2.42204">
        <ele>450.52</ele>
        <time>2019-09-11T16:30:30Z</time>
      </trkpt>
      <trkpt lat="46.31938" lon="2.4219">
        <ele>451.96</ele>
        <time>2019-09-11T16:30:44Z</time>
      </trkpt>
      <trkpt lat="46.31969" lon="2.42163">
        <ele>454.84</ele>
        <time>2019-09-11T16:30:59Z</time>
      </trkpt>
      <trkpt lat="46.31982" lon="2.42147">
        <ele>457.24</ele>
        <time>2019-09-11T16:31:08Z</time>
      </trkpt>
      <trkpt lat="46.31984" lon="2.42145">
        <ele>457.24</ele>
        <time>2019-09-11T16:31:09Z</time>
      </trkpt>
      <trkpt lat="46.32013" lon="2.42121">
        <ele>459.65</ele>
        <time>2019-09-11T16:31:23Z</time>
      </trkpt>
      <trkpt lat="46.32045" lon="2.421">
        <ele>462.05</ele>
        <time>2019-09-11T16:31:38Z</time>
      </trkpt>
      <trkpt lat="46.32078" lon="2.42079">
        <ele>464.45</ele>
        <time>2019-09-11T16:31:52Z</time>
      </trkpt>
      <trkpt lat="46.32116" lon="2.42057">
        <ele>466.86</ele>
        <time>2019-09-11T16:32:08Z</time>
      </trkpt>
      <trkpt lat="46.3215" lon="2.42033">
        <ele>469.74</ele>
        <time>2019-09-11T16:32:22Z</time>
      </trkpt>
      <trkpt lat="46.32195" lon="2.42026">
        <ele>472.63</ele>
        <time>2019-09-11T16:32:38Z</time>
      </trkpt>
      <trkpt lat="46.3225" lon="2.42028">
        <ele>474.07</ele>
        <time>2019-09-11T16:32:53Z</time>
      </trkpt>
      <trkpt lat="46.32299" lon="2.42027">
        <ele>475.03</ele>
        <time>2019-09-11T16:33:07Z</time>
      </trkpt>
      <trkpt lat="46.32324" lon="2.42013">
        <ele>475.03</ele>
        <time>2019-09-11T16:33:14Z</time>
      </trkpt>
      <trkpt lat="46.32328" lon="2.4201">
        <ele>475.03</ele>
        <time>2019-09-11T16:33:15Z</time>
      </trkpt>
      <trkpt lat="46.32332" lon="2.42007">
        <ele>475.03</ele>
        <time>2019-09-11T16:33:16Z</time>
      </trkpt>
      <trkpt lat="46.32337" lon="2.42005">
        <ele>475.03</ele>
        <time>2019-09-11T16:33:17Z</time>
      </trkpt>
      <trkpt lat="46.32341" lon="2.42004">
        <ele>475.03</ele>
        <time>2019-09-11T16:33:18Z</time>
      </trkpt>
      <trkpt lat="46.32346" lon="2.42004">
        <ele>475.03</ele>
        <time>2019-09-11T16:33:19Z</time>
      </trkpt>
      <trkpt lat="46.3235" lon="2.42003">
        <ele>475.03</ele>
        <time>2019-09-11T16:33:20Z</time>
      </trkpt>
      <trkpt lat="46.32355" lon="2.42003">
        <ele>475.03</ele>
        <time>2019-09-11T16:33:21Z</time>
      </trkpt>
      <trkpt lat="46.32387" lon="2.42009">
        <ele>476.47</ele>
        <time>2019-09-11T16:33:30Z</time>
      </trkpt>
      <trkpt lat="46.3242" lon="2.42021">
        <ele>479.84</ele>
        <time>2019-09-11T16:33:42Z</time>
      </trkpt>
      <trkpt lat="46.32451" lon="2.42029">
        <ele>483.2</ele>
        <time>2019-09-11T16:33:53Z</time>
      </trkpt>
      <trkpt lat="46.32492" lon="2.42028">
        <ele>485.12</ele>
        <time>2019-09-11T16:34:08Z</time>
      </trkpt>
      <trkpt lat="46.32521" lon="2.4199">
        <ele>486.56</ele>
        <time>2019-09-11T16:34:21Z</time>
      </trkpt>
      <trkpt lat="46.32524" lon="2.4198">
        <ele>486.56</ele>
        <time>2019-09-11T16:34:23Z</time>
      </trkpt>
      <trkpt lat="46.32525" lon="2.41974">
        <ele>486.56</ele>
        <time>2019-09-11T16:34:24Z</time>
      </trkpt>
      <trkpt lat="46.32533" lon="2.41939">
        <ele>485.12</ele>
        <time>2019-09-11T16:34:29Z</time>
      </trkpt>
      <trkpt lat="46.32568" lon="2.4186">
        <ele>483.68</ele>
        <time>2019-09-11T16:34:41Z</time>
      </trkpt>
      <trkpt lat="46.3261" lon="2.41806">
        <ele>483.68</ele>
        <time>2019-09-11T16:34:54Z</time>
      </trkpt>
      <trkpt lat="46.32657" lon="2.41768">
        <ele>485.12</ele>
        <time>2019-09-11T16:35:08Z</time>
      </trkpt>
      <trkpt lat="46.3266" lon="2.41767">
        <ele>485.12</ele>
        <time>2019-09-11T16:35:10Z</time>
      </trkpt>
      <trkpt lat="46.32653" lon="2.4177">
        <ele>485.12</ele>
        <time>2019-09-11T16:35:17Z</time>
      </trkpt>
      <trkpt lat="46.32647" lon="2.41771">
        <ele>485.12</ele>
        <time>2019-09-11T16:35:20Z</time>
      </trkpt>
      <trkpt lat="46.32645" lon="2.4177">
        <ele>485.12</ele>
        <time>2019-09-11T16:35:21Z</time>
      </trkpt>
      <trkpt lat="46.32641" lon="2.41758">
        <ele>485.12</ele>
        <time>2019-09-11T16:35:25Z</time>
      </trkpt>
      <trkpt lat="46.32642" lon="2.41755">
        <ele>485.6</ele>
        <time>2019-09-11T16:35:26Z</time>
      </trkpt>
      <trkpt lat="46.32643" lon="2.41751">
        <ele>485.6</ele>
        <time>2019-09-11T16:35:27Z</time>
      </trkpt>
      <trkpt lat="46.32657" lon="2.41686">
        <ele>487.05</ele>
        <time>2019-09-11T16:35:42Z</time>
      </trkpt>
      <trkpt lat="46.32671" lon="2.41622">
        <ele>489.45</ele>
        <time>2019-09-11T16:35:59Z</time>
      </trkpt>
      <trkpt lat="46.32683" lon="2.4157">
        <ele>491.37</ele>
        <time>2019-09-11T16:36:14Z</time>
      </trkpt>
      <trkpt lat="46.32686" lon="2.41558">
        <ele>491.85</ele>
        <time>2019-09-11T16:36:26Z</time>
      </trkpt>
      <trkpt lat="46.32686" lon="2.41556">
        <ele>491.85</ele>
        <time>2019-09-11T16:36:42Z</time>
      </trkpt>
      <trkpt lat="46.32689" lon="2.41554">
        <ele>491.85</ele>
        <time>2019-09-11T16:37:04Z</time>
      </trkpt>
      <trkpt lat="46.32689" lon="2.41551">
        <ele>491.85</ele>
        <time>2019-09-11T16:37:22Z</time>
      </trkpt>
      <trkpt lat="46.32687" lon="2.41549">
        <ele>491.85</ele>
        <time>2019-09-11T16:37:33Z</time>
      </trkpt>
      <trkpt lat="46.32687" lon="2.41547">
        <ele>492.33</ele>
        <time>2019-09-11T16:38:15Z</time>
      </trkpt>
      <trkpt lat="46.32687" lon="2.41547">
        <ele>492.33</ele>
        <time>2019-09-11T16:38:18Z</time>
      </trkpt>
      <trkpt lat="46.32688" lon="2.41543">
        <ele>492.33</ele>
        <time>2019-09-11T16:38:22Z</time>
      </trkpt>
      <trkpt lat="46.3269" lon="2.41532">
        <ele>493.29</ele>
        <time>2019-09-11T16:38:27Z</time>
      </trkpt>
      <trkpt lat="46.32693" lon="2.41487">
        <ele>495.7</ele>
        <time>2019-09-11T16:38:41Z</time>
      </trkpt>
      <trkpt lat="46.32697" lon="2.41456">
        <ele>495.7</ele>
        <time>2019-09-11T16:38:49Z</time>
      </trkpt>
      <trkpt lat="46.32697" lon="2.41452">
        <ele>495.7</ele>
        <time>2019-09-11T16:38:50Z</time>
      </trkpt>
      <trkpt lat="46.32697" lon="2.41449">
        <ele>495.7</ele>
        <time>2019-09-11T16:38:51Z</time>
      </trkpt>
      <trkpt lat="46.32696" lon="2.41446">
        <ele>495.7</ele>
        <time>2019-09-11T16:38:52Z</time>
      </trkpt>
      <trkpt lat="46.32696" lon="2.41442">
        <ele>496.18</ele>
        <time>2019-09-11T16:38:53Z</time>
      </trkpt>
      <trkpt lat="46.32695" lon="2.41438">
        <ele>496.18</ele>
        <time>2019-09-11T16:38:54Z</time>
      </trkpt>
      <trkpt lat="46.32695" lon="2.41435">
        <ele>496.66</ele>
        <time>2019-09-11T16:38:55Z</time>
      </trkpt>
      <trkpt lat="46.32687" lon="2.41372">
        <ele>499.06</ele>
        <time>2019-09-11T16:39:12Z</time>
      </trkpt>
      <trkpt lat="46.32689" lon="2.41301">
        <ele>500.02</ele>
        <time>2019-09-11T16:39:27Z</time>
      </trkpt>
      <trkpt lat="46.32667" lon="2.41245">
        <ele>500.02</ele>
        <time>2019-09-11T16:39:39Z</time>
      </trkpt>
      <trkpt lat="46.32634" lon="2.41168">
        <ele>500.5</ele>
        <time>2019-09-11T16:39:55Z</time>
      </trkpt>
      <trkpt lat="46.32628" lon="2.41153">
        <ele>500.5</ele>
        <time>2019-09-11T16:39:58Z</time>
      </trkpt>
      <trkpt lat="46.32606" lon="2.41069">
        <ele>500.5</ele>
        <time>2019-09-11T16:40:13Z</time>
      </trkpt>
      <trkpt lat="46.32598" lon="2.41016">
        <ele>501.46</ele>
        <time>2019-09-11T16:40:23Z</time>
      </trkpt>
      <trkpt lat="46.32589" lon="2.40951">
        <ele>501.95</ele>
        <time>2019-09-11T16:40:34Z</time>
      </trkpt>
      <trkpt lat="46.32586" lon="2.40931">
        <ele>501.95</ele>
        <time>2019-09-11T16:40:37Z</time>
      </trkpt>
      <trkpt lat="46.32558" lon="2.40861">
        <ele>501.95</ele>
        <time>2019-09-11T16:40:49Z</time>
      </trkpt>
      <trkpt lat="46.32527" lon="2.40795">
        <ele>503.87</ele>
        <time>2019-09-11T16:41:04Z</time>
      </trkpt>
      <trkpt lat="46.32509" lon="2.40761">
        <ele>506.75</ele>
        <time>2019-09-11T16:41:16Z</time>
      </trkpt>
      <trkpt lat="46.32492" lon="2.40718">
        <ele>508.67</ele>
        <time>2019-09-11T16:41:30Z</time>
      </trkpt>
      <trkpt lat="46.32483" lon="2.40686">
        <ele>510.12</ele>
        <time>2019-09-11T16:41:40Z</time>
      </trkpt>
      <trkpt lat="46.32481" lon="2.40645">
        <ele>513.48</ele>
        <time>2019-09-11T16:41:53Z</time>
      </trkpt>
      <trkpt lat="46.32494" lon="2.40604">
        <ele>515.88</ele>
        <time>2019-09-11T16:42:05Z</time>
      </trkpt>
      <trkpt lat="46.325" lon="2.40552">
        <ele>516.85</ele>
        <time>2019-09-11T16:42:18Z</time>
      </trkpt>
      <trkpt lat="46.32487" lon="2.40504">
        <ele>517.81</ele>
        <time>2019-09-11T16:42:30Z</time>
      </trkpt>
      <trkpt lat="46.32488" lon="2.40471">
        <ele>518.29</ele>
        <time>2019-09-11T16:42:39Z</time>
      </trkpt>
      <trkpt lat="46.32513" lon="2.40402">
        <ele>519.73</ele>
        <time>2019-09-11T16:42:56Z</time>
      </trkpt>
      <trkpt lat="46.32543" lon="2.40337">
        <ele>521.65</ele>
        <time>2019-09-11T16:43:13Z</time>
      </trkpt>
      <trkpt lat="46.32565" lon="2.4029">
        <ele>525.02</ele>
        <time>2019-09-11T16:43:27Z</time>
      </trkpt>
      <trkpt lat="46.32587" lon="2.40245">
        <ele>527.42</ele>
        <time>2019-09-11T16:43:41Z</time>
      </trkpt>
      <trkpt lat="46.32628" lon="2.40205">
        <ele>528.38</ele>
        <time>2019-09-11T16:43:56Z</time>
      </trkpt>
      <trkpt lat="46.32665" lon="2.40174">
        <ele>529.82</ele>
        <time>2019-09-11T16:44:11Z</time>
      </trkpt>
      <trkpt lat="46.32709" lon="2.40148">
        <ele>530.3</ele>
        <time>2019-09-11T16:44:24Z</time>
      </trkpt>
      <trkpt lat="46.32766" lon="2.40102">
        <ele>531.75</ele>
        <time>2019-09-11T16:44:40Z</time>
      </trkpt>
      <trkpt lat="46.32771" lon="2.40101">
        <ele>531.75</ele>
        <time>2019-09-11T16:44:41Z</time>
      </trkpt>
      <trkpt lat="46.32775" lon="2.40101">
        <ele>531.75</ele>
        <time>2019-09-11T16:44:42Z</time>
      </trkpt>
      <trkpt lat="46.32779" lon="2.40103">
        <ele>531.75</ele>
        <time>2019-09-11T16:44:43Z</time>
      </trkpt>
      <trkpt lat="46.32782" lon="2.40107">
        <ele>531.75</ele>
        <time>2019-09-11T16:44:44Z</time>
      </trkpt>
      <trkpt lat="46.32785" lon="2.40111">
        <ele>531.75</ele>
        <time>2019-09-11T16:44:45Z</time>
      </trkpt>
      <trkpt lat="46.32787" lon="2.40115">
        <ele>531.75</ele>
        <time>2019-09-11T16:44:46Z</time>
      </trkpt>
      <trkpt lat="46.32803" lon="2.40147">
        <ele>534.15</ele>
        <time>2019-09-11T16:44:53Z</time>
      </trkpt>
      <trkpt lat="46.32822" lon="2.40191">
        <ele>536.55</ele>
        <time>2019-09-11T16:45:02Z</time>
      </trkpt>
      <trkpt lat="46.32862" lon="2.40284">
        <ele>537.03</ele>
        <time>2019-09-11T16:45:20Z</time>
      </trkpt>
      <trkpt lat="46.32891" lon="2.40335">
        <ele>537.03</ele>
        <time>2019-09-11T16:45:34Z</time>
      </trkpt>
      <trkpt lat="46.32898" lon="2.40351">
        <ele>537.03</ele>
        <time>2019-09-11T16:45:44Z</time>
      </trkpt>
      <trkpt lat="46.32899" lon="2.40352">
        <ele>537.03</ele>
        <time>2019-09-11T16:46:06Z</time>
      </trkpt>
      <trkpt lat="46.32899" lon="2.40356">
        <ele>537.03</ele>
        <time>2019-09-11T16:46:36Z</time>
      </trkpt>
      <trkpt lat="46.32898" lon="2.40361">
        <ele>537.03</ele>
        <time>2019-09-11T16:46:56Z</time>
      </trkpt>
      <trkpt lat="46.32911" lon="2.40409">
        <ele>536.07</ele>
        <time>2019-09-11T16:47:09Z</time>
      </trkpt>
      <trkpt lat="46.32915" lon="2.40426">
        <ele>535.59</ele>
        <time>2019-09-11T16:47:12Z</time>
      </trkpt>
      <trkpt lat="46.32917" lon="2.40431">
        <ele>535.59</ele>
        <time>2019-09-11T16:47:13Z</time>
      </trkpt>
      <trkpt lat="46.32922" lon="2.40455">
        <ele>535.59</ele>
        <time>2019-09-11T16:47:17Z</time>
      </trkpt>
      <trkpt lat="46.32923" lon="2.40461">
        <ele>535.59</ele>
        <time>2019-09-11T16:47:18Z</time>
      </trkpt>
      <trkpt lat="46.32933" lon="2.40498">
        <ele>535.11</ele>
        <time>2019-09-11T16:47:24Z</time>
      </trkpt>
      <trkpt lat="46.32976" lon="2.40585">
        <ele>532.71</ele>
        <time>2019-09-11T16:47:38Z</time>
      </trkpt>
      <trkpt lat="46.33017" lon="2.40635">
        <ele>528.86</ele>
        <time>2019-09-11T16:47:46Z</time>
      </trkpt>
      <trkpt lat="46.33029" lon="2.40648">
        <ele>528.38</ele>
        <time>2019-09-11T16:47:48Z</time>
      </trkpt>
      <trkpt lat="46.33083" lon="2.40717">
        <ele>525.02</ele>
        <time>2019-09-11T16:47:57Z</time>
      </trkpt>
      <trkpt lat="46.33141" lon="2.40828">
        <ele>523.58</ele>
        <time>2019-09-11T16:48:10Z</time>
      </trkpt>
      <trkpt lat="46.33154" lon="2.40857">
        <ele>523.09</ele>
        <time>2019-09-11T16:48:15Z</time>
      </trkpt>
      <trkpt lat="46.33154" lon="2.40861">
        <ele>523.09</ele>
        <time>2019-09-11T16:48:16Z</time>
      </trkpt>
      <trkpt lat="46.33153" lon="2.40864">
        <ele>523.09</ele>
        <time>2019-09-11T16:48:17Z</time>
      </trkpt>
      <trkpt lat="46.33152" lon="2.40867">
        <ele>523.09</ele>
        <time>2019-09-11T16:48:18Z</time>
      </trkpt>
      <trkpt lat="46.33152" lon="2.40871">
        <ele>523.09</ele>
        <time>2019-09-11T16:48:19Z</time>
      </trkpt>
      <trkpt lat="46.33144" lon="2.40916">
        <ele>520.21</ele>
        <time>2019-09-11T16:48:29Z</time>
      </trkpt>
      <trkpt lat="46.33142" lon="2.40934">
        <ele>517.81</ele>
        <time>2019-09-11T16:48:33Z</time>
      </trkpt>
      <trkpt lat="46.33148" lon="2.4095">
        <ele>515.88</ele>
        <time>2019-09-11T16:48:37Z</time>
      </trkpt>
      <trkpt lat="46.33174" lon="2.40987">
        <ele>513.48</ele>
        <time>2019-09-11T16:48:48Z</time>
      </trkpt>
      <trkpt lat="46.33187" lon="2.40998">
        <ele>512.52</ele>
        <time>2019-09-11T16:48:52Z</time>
      </trkpt>
      <trkpt lat="46.33203" lon="2.41027">
        <ele>510.6</ele>
        <time>2019-09-11T16:48:58Z</time>
      </trkpt>
      <trkpt lat="46.33205" lon="2.41034">
        <ele>510.12</ele>
        <time>2019-09-11T16:48:59Z</time>
      </trkpt>
      <trkpt lat="46.33211" lon="2.41048">
        <ele>509.64</ele>
        <time>2019-09-11T16:49:01Z</time>
      </trkpt>
      <trkpt lat="46.33217" lon="2.41061">
        <ele>508.67</ele>
        <time>2019-09-11T16:49:03Z</time>
      </trkpt>
      <trkpt lat="46.33235" lon="2.41098">
        <ele>507.23</ele>
        <time>2019-09-11T16:49:08Z</time>
      </trkpt>
      <trkpt lat="46.33242" lon="2.41112">
        <ele>506.75</ele>
        <time>2019-09-11T16:49:10Z</time>
      </trkpt>
      <trkpt lat="46.33251" lon="2.41133">
        <ele>505.79</ele>
        <time>2019-09-11T16:49:13Z</time>
      </trkpt>
      <trkpt lat="46.33265" lon="2.41161">
        <ele>505.31</ele>
        <time>2019-09-11T16:49:17Z</time>
      </trkpt>
      <trkpt lat="46.33275" lon="2.41186">
        <ele>504.83</ele>
        <time>2019-09-11T16:49:21Z</time>
      </trkpt>
      <trkpt lat="46.33296" lon="2.41252">
        <ele>503.87</ele>
        <time>2019-09-11T16:49:32Z</time>
      </trkpt>
      <trkpt lat="46.33301" lon="2.41273">
        <ele>503.87</ele>
        <time>2019-09-11T16:49:35Z</time>
      </trkpt>
      <trkpt lat="46.33304" lon="2.41285">
        <ele>503.87</ele>
        <time>2019-09-11T16:49:37Z</time>
      </trkpt>
      <trkpt lat="46.33333" lon="2.41413">
        <ele>503.39</ele>
        <time>2019-09-11T16:49:53Z</time>
      </trkpt>
      <trkpt lat="46.33349" lon="2.41463">
        <ele>502.91</ele>
        <time>2019-09-11T16:49:59Z</time>
      </trkpt>
      <trkpt lat="46.3337" lon="2.41506">
        <ele>502.43</ele>
        <time>2019-09-11T16:50:05Z</time>
      </trkpt>
      <trkpt lat="46.33412" lon="2.41618">
        <ele>502.43</ele>
        <time>2019-09-11T16:50:19Z</time>
      </trkpt>
      <trkpt lat="46.33425" lon="2.41651">
        <ele>502.43</ele>
        <time>2019-09-11T16:50:24Z</time>
      </trkpt>
      <trkpt lat="46.33426" lon="2.41657">
        <ele>502.43</ele>
        <time>2019-09-11T16:50:25Z</time>
      </trkpt>
      <trkpt lat="46.33427" lon="2.41664">
        <ele>502.43</ele>
        <time>2019-09-11T16:50:26Z</time>
      </trkpt>
      <trkpt lat="46.33426" lon="2.41672">
        <ele>502.43</ele>
        <time>2019-09-11T16:50:27Z</time>
      </trkpt>
      <trkpt lat="46.33425" lon="2.41679">
        <ele>502.43</ele>
        <time>2019-09-11T16:50:28Z</time>
      </trkpt>
      <trkpt lat="46.33422" lon="2.41685">
        <ele>501.95</ele>
        <time>2019-09-11T16:50:29Z</time>
      </trkpt>
      <trkpt lat="46.33419" lon="2.41691">
        <ele>501.95</ele>
        <time>2019-09-11T16:50:30Z</time>
      </trkpt>
      <trkpt lat="46.33406" lon="2.41717">
        <ele>501.95</ele>
        <time>2019-09-11T16:50:34Z</time>
      </trkpt>
      <trkpt lat="46.33346" lon="2.41813">
        <ele>498.58</ele>
        <time>2019-09-11T16:50:48Z</time>
      </trkpt>
      <trkpt lat="46.33324" lon="2.4184">
        <ele>498.1</ele>
        <time>2019-09-11T16:50:52Z</time>
      </trkpt>
      <trkpt lat="46.3332" lon="2.41847">
        <ele>498.1</ele>
        <time>2019-09-11T16:50:53Z</time>
      </trkpt>
      <trkpt lat="46.33315" lon="2.41856">
        <ele>498.1</ele>
        <time>2019-09-11T16:50:54Z</time>
      </trkpt>
      <trkpt lat="46.33311" lon="2.41864">
        <ele>497.14</ele>
        <time>2019-09-11T16:50:55Z</time>
      </trkpt>
      <trkpt lat="46.33308" lon="2.41874">
        <ele>497.14</ele>
        <time>2019-09-11T16:50:56Z</time>
      </trkpt>
      <trkpt lat="46.33304" lon="2.41883">
        <ele>497.14</ele>
        <time>2019-09-11T16:50:57Z</time>
      </trkpt>
      <trkpt lat="46.33283" lon="2.41937">
        <ele>493.29</ele>
        <time>2019-09-11T16:51:02Z</time>
      </trkpt>
      <trkpt lat="46.33254" lon="2.41994">
        <ele>489.93</ele>
        <time>2019-09-11T16:51:07Z</time>
      </trkpt>
      <trkpt lat="46.33224" lon="2.42048">
        <ele>486.08</ele>
        <time>2019-09-11T16:51:12Z</time>
      </trkpt>
      <trkpt lat="46.33203" lon="2.42087">
        <ele>483.68</ele>
        <time>2019-09-11T16:51:16Z</time>
      </trkpt>
      <trkpt lat="46.33182" lon="2.42119">
        <ele>482.24</ele>
        <time>2019-09-11T16:51:20Z</time>
      </trkpt>
      <trkpt lat="46.33171" lon="2.42131">
        <ele>481.28</ele>
        <time>2019-09-11T16:51:22Z</time>
      </trkpt>
      <trkpt lat="46.33145" lon="2.42159">
        <ele>477.91</ele>
        <time>2019-09-11T16:51:26Z</time>
      </trkpt>
      <trkpt lat="46.33114" lon="2.42193">
        <ele>474.55</ele>
        <time>2019-09-11T16:51:30Z</time>
      </trkpt>
      <trkpt lat="46.33093" lon="2.42217">
        <ele>471.66</ele>
        <time>2019-09-11T16:51:33Z</time>
      </trkpt>
      <trkpt lat="46.33088" lon="2.42225">
        <ele>470.7</ele>
        <time>2019-09-11T16:51:34Z</time>
      </trkpt>
      <trkpt lat="46.33084" lon="2.42234">
        <ele>470.7</ele>
        <time>2019-09-11T16:51:35Z</time>
      </trkpt>
      <trkpt lat="46.33081" lon="2.42243">
        <ele>470.7</ele>
        <time>2019-09-11T16:51:36Z</time>
      </trkpt>
      <trkpt lat="46.33078" lon="2.42253">
        <ele>470.22</ele>
        <time>2019-09-11T16:51:37Z</time>
      </trkpt>
      <trkpt lat="46.33077" lon="2.42262">
        <ele>470.22</ele>
        <time>2019-09-11T16:51:38Z</time>
      </trkpt>
      <trkpt lat="46.33077" lon="2.42271">
        <ele>469.26</ele>
        <time>2019-09-11T16:51:39Z</time>
      </trkpt>
      <trkpt lat="46.33076" lon="2.4228">
        <ele>469.26</ele>
        <time>2019-09-11T16:51:40Z</time>
      </trkpt>
      <trkpt lat="46.33077" lon="2.42288">
        <ele>469.26</ele>
        <time>2019-09-11T16:51:41Z</time>
      </trkpt>
      <trkpt lat="46.33078" lon="2.42296">
        <ele>469.26</ele>
        <time>2019-09-11T16:51:42Z</time>
      </trkpt>
      <trkpt lat="46.3308" lon="2.42304">
        <ele>468.78</ele>
        <time>2019-09-11T16:51:43Z</time>
      </trkpt>
      <trkpt lat="46.33083" lon="2.42311">
        <ele>468.78</ele>
        <time>2019-09-11T16:51:44Z</time>
      </trkpt>
      <trkpt lat="46.33086" lon="2.42318">
        <ele>468.78</ele>
        <time>2019-09-11T16:51:45Z</time>
      </trkpt>
      <trkpt lat="46.33088" lon="2.42324">
        <ele>468.78</ele>
        <time>2019-09-11T16:51:46Z</time>
      </trkpt>
      <trkpt lat="46.3309" lon="2.42329">
        <ele>468.78</ele>
        <time>2019-09-11T16:51:47Z</time>
      </trkpt>
      <trkpt lat="46.33116" lon="2.42376">
        <ele>468.78</ele>
        <time>2019-09-11T16:51:57Z</time>
      </trkpt>
      <trkpt lat="46.33163" lon="2.42442">
        <ele>466.86</ele>
        <time>2019-09-11T16:52:07Z</time>
      </trkpt>
      <trkpt lat="46.33233" lon="2.42503">
        <ele>466.86</ele>
        <time>2019-09-11T16:52:21Z</time>
      </trkpt>
      <trkpt lat="46.33252" lon="2.42514">
        <ele>468.3</ele>
        <time>2019-09-11T16:52:25Z</time>
      </trkpt>
      <trkpt lat="46.3327" lon="2.42529">
        <ele>468.3</ele>
        <time>2019-09-11T16:52:29Z</time>
      </trkpt>
      <trkpt lat="46.33275" lon="2.42532">
        <ele>468.3</ele>
        <time>2019-09-11T16:52:30Z</time>
      </trkpt>
      <trkpt lat="46.33296" lon="2.42539">
        <ele>468.78</ele>
        <time>2019-09-11T16:52:34Z</time>
      </trkpt>
      <trkpt lat="46.33301" lon="2.42539">
        <ele>468.78</ele>
        <time>2019-09-11T16:52:35Z</time>
      </trkpt>
      <trkpt lat="46.33322" lon="2.42537">
        <ele>468.78</ele>
        <time>2019-09-11T16:52:39Z</time>
      </trkpt>
      <trkpt lat="46.33325" lon="2.42539">
        <ele>468.78</ele>
        <time>2019-09-11T16:52:40Z</time>
      </trkpt>
      <trkpt lat="46.33329" lon="2.42541">
        <ele>468.78</ele>
        <time>2019-09-11T16:52:41Z</time>
      </trkpt>
      <trkpt lat="46.33334" lon="2.42544">
        <ele>468.78</ele>
        <time>2019-09-11T16:52:42Z</time>
      </trkpt>
      <trkpt lat="46.33338" lon="2.42547">
        <ele>468.78</ele>
        <time>2019-09-11T16:52:43Z</time>
      </trkpt>
      <trkpt lat="46.33343" lon="2.42551">
        <ele>468.78</ele>
        <time>2019-09-11T16:52:44Z</time>
      </trkpt>
      <trkpt lat="46.33347" lon="2.42556">
        <ele>468.78</ele>
        <time>2019-09-11T16:52:45Z</time>
      </trkpt>
      <trkpt lat="46.33352" lon="2.42561">
        <ele>467.34</ele>
        <time>2019-09-11T16:52:46Z</time>
      </trkpt>
      <trkpt lat="46.33365" lon="2.42578">
        <ele>464.93</ele>
        <time>2019-09-11T16:52:49Z</time>
      </trkpt>
      <trkpt lat="46.33379" lon="2.42591">
        <ele>463.49</ele>
        <time>2019-09-11T16:52:52Z</time>
      </trkpt>
      <trkpt lat="46.33389" lon="2.42598">
        <ele>462.53</ele>
        <time>2019-09-11T16:52:54Z</time>
      </trkpt>
      <trkpt lat="46.33402" lon="2.42604">
        <ele>462.05</ele>
        <time>2019-09-11T16:52:56Z</time>
      </trkpt>
      <trkpt lat="46.33421" lon="2.42617">
        <ele>459.17</ele>
        <time>2019-09-11T16:53:00Z</time>
      </trkpt>
      <trkpt lat="46.3343" lon="2.42653">
        <ele>455.32</ele>
        <time>2019-09-11T16:53:06Z</time>
      </trkpt>
      <trkpt lat="46.33433" lon="2.42684">
        <ele>451.96</ele>
        <time>2019-09-11T16:53:10Z</time>
      </trkpt>
      <trkpt lat="46.33448" lon="2.42709">
        <ele>449.55</ele>
        <time>2019-09-11T16:53:14Z</time>
      </trkpt>
      <trkpt lat="46.33472" lon="2.42728">
        <ele>446.19</ele>
        <time>2019-09-11T16:53:19Z</time>
      </trkpt>
      <trkpt lat="46.33477" lon="2.42741">
        <ele>445.23</ele>
        <time>2019-09-11T16:53:21Z</time>
      </trkpt>
      <trkpt lat="46.33481" lon="2.42758">
        <ele>444.27</ele>
        <time>2019-09-11T16:53:23Z</time>
      </trkpt>
      <trkpt lat="46.33484" lon="2.42775">
        <ele>442.82</ele>
        <time>2019-09-11T16:53:25Z</time>
      </trkpt>
      <trkpt lat="46.33503" lon="2.42806">
        <ele>439.94</ele>
        <time>2019-09-11T16:53:30Z</time>
      </trkpt>
      <trkpt lat="46.33513" lon="2.42825">
        <ele>438.5</ele>
        <time>2019-09-11T16:53:33Z</time>
      </trkpt>
      <trkpt lat="46.33519" lon="2.42839">
        <ele>437.54</ele>
        <time>2019-09-11T16:53:35Z</time>
      </trkpt>
      <trkpt lat="46.33527" lon="2.42859">
        <ele>436.1</ele>
        <time>2019-09-11T16:53:38Z</time>
      </trkpt>
      <trkpt lat="46.33546" lon="2.4287">
        <ele>434.17</ele>
        <time>2019-09-11T16:53:42Z</time>
      </trkpt>
      <trkpt lat="46.3355" lon="2.42868">
        <ele>434.17</ele>
        <time>2019-09-11T16:53:43Z</time>
      </trkpt>
      <trkpt lat="46.33592" lon="2.42882">
        <ele>431.29</ele>
        <time>2019-09-11T16:53:53Z</time>
      </trkpt>
      <trkpt lat="46.33595" lon="2.42891">
        <ele>430.81</ele>
        <time>2019-09-11T16:53:54Z</time>
      </trkpt>
      <trkpt lat="46.33623" lon="2.42958">
        <ele>426.48</ele>
        <time>2019-09-11T16:54:01Z</time>
      </trkpt>
      <trkpt lat="46.33634" lon="2.42982">
        <ele>425.52</ele>
        <time>2019-09-11T16:54:04Z</time>
      </trkpt>
      <trkpt lat="46.33639" lon="2.42987">
        <ele>425.04</ele>
        <time>2019-09-11T16:54:05Z</time>
      </trkpt>
      <trkpt lat="46.33645" lon="2.42991">
        <ele>425.04</ele>
        <time>2019-09-11T16:54:06Z</time>
      </trkpt>
      <trkpt lat="46.33652" lon="2.42993">
        <ele>424.08</ele>
        <time>2019-09-11T16:54:07Z</time>
      </trkpt>
      <trkpt lat="46.33658" lon="2.42995">
        <ele>423.6</ele>
        <time>2019-09-11T16:54:08Z</time>
      </trkpt>
      <trkpt lat="46.33672" lon="2.42999">
        <ele>423.12</ele>
        <time>2019-09-11T16:54:10Z</time>
      </trkpt>
      <trkpt lat="46.33692" lon="2.43005">
        <ele>423.12</ele>
        <time>2019-09-11T16:54:13Z</time>
      </trkpt>
      <trkpt lat="46.33699" lon="2.43008">
        <ele>423.12</ele>
        <time>2019-09-11T16:54:14Z</time>
      </trkpt>
      <trkpt lat="46.33739" lon="2.4302">
        <ele>422.16</ele>
        <time>2019-09-11T16:54:20Z</time>
      </trkpt>
      <trkpt lat="46.3376" lon="2.43025">
        <ele>421.19</ele>
        <time>2019-09-11T16:54:23Z</time>
      </trkpt>
      <trkpt lat="46.33809" lon="2.43054">
        <ele>418.79</ele>
        <time>2019-09-11T16:54:30Z</time>
      </trkpt>
      <trkpt lat="46.33815" lon="2.4306">
        <ele>418.79</ele>
        <time>2019-09-11T16:54:31Z</time>
      </trkpt>
      <trkpt lat="46.33827" lon="2.43075">
        <ele>418.79</ele>
        <time>2019-09-11T16:54:33Z</time>
      </trkpt>
      <trkpt lat="46.33832" lon="2.43083">
        <ele>418.31</ele>
        <time>2019-09-11T16:54:34Z</time>
      </trkpt>
      <trkpt lat="46.33837" lon="2.43092">
        <ele>418.31</ele>
        <time>2019-09-11T16:54:35Z</time>
      </trkpt>
      <trkpt lat="46.33841" lon="2.431">
        <ele>417.83</ele>
        <time>2019-09-11T16:54:36Z</time>
      </trkpt>
      <trkpt lat="46.33845" lon="2.43108">
        <ele>417.83</ele>
        <time>2019-09-11T16:54:37Z</time>
      </trkpt>
      <trkpt lat="46.3385" lon="2.43115">
        <ele>417.83</ele>
        <time>2019-09-11T16:54:38Z</time>
      </trkpt>
      <trkpt lat="46.33855" lon="2.43121">
        <ele>417.83</ele>
        <time>2019-09-11T16:54:39Z</time>
      </trkpt>
      <trkpt lat="46.33861" lon="2.43126">
        <ele>417.83</ele>
        <time>2019-09-11T16:54:40Z</time>
      </trkpt>
      <trkpt lat="46.33867" lon="2.43129">
        <ele>417.35</ele>
        <time>2019-09-11T16:54:41Z</time>
      </trkpt>
      <trkpt lat="46.33874" lon="2.43129">
        <ele>417.35</ele>
        <time>2019-09-11T16:54:42Z</time>
      </trkpt>
      <trkpt lat="46.3388" lon="2.43128">
        <ele>417.35</ele>
        <time>2019-09-11T16:54:43Z</time>
      </trkpt>
      <trkpt lat="46.33886" lon="2.43127">
        <ele>417.35</ele>
        <time>2019-09-11T16:54:44Z</time>
      </trkpt>
      <trkpt lat="46.33898" lon="2.4313">
        <ele>418.79</ele>
        <time>2019-09-11T16:54:46Z</time>
      </trkpt>
      <trkpt lat="46.33904" lon="2.43133">
        <ele>418.79</ele>
        <time>2019-09-11T16:54:47Z</time>
      </trkpt>
      <trkpt lat="46.33917" lon="2.4314">
        <ele>418.79</ele>
        <time>2019-09-11T16:54:49Z</time>
      </trkpt>
      <trkpt lat="46.33924" lon="2.43141">
        <ele>418.79</ele>
        <time>2019-09-11T16:54:50Z</time>
      </trkpt>
      <trkpt lat="46.33932" lon="2.43142">
        <ele>417.83</ele>
        <time>2019-09-11T16:54:51Z</time>
      </trkpt>
      <trkpt lat="46.33941" lon="2.43141">
        <ele>417.35</ele>
        <time>2019-09-11T16:54:52Z</time>
      </trkpt>
      <trkpt lat="46.3395" lon="2.4314">
        <ele>416.87</ele>
        <time>2019-09-11T16:54:53Z</time>
      </trkpt>
      <trkpt lat="46.33959" lon="2.43141">
        <ele>415.91</ele>
        <time>2019-09-11T16:54:54Z</time>
      </trkpt>
      <trkpt lat="46.33987" lon="2.43146">
        <ele>414.95</ele>
        <time>2019-09-11T16:54:57Z</time>
      </trkpt>
      <trkpt lat="46.33996" lon="2.4315">
        <ele>414.47</ele>
        <time>2019-09-11T16:54:58Z</time>
      </trkpt>
      <trkpt lat="46.34005" lon="2.43156">
        <ele>413.98</ele>
        <time>2019-09-11T16:54:59Z</time>
      </trkpt>
      <trkpt lat="46.34013" lon="2.43163">
        <ele>413.98</ele>
        <time>2019-09-11T16:55:00Z</time>
      </trkpt>
      <trkpt lat="46.3402" lon="2.43171">
        <ele>413.02</ele>
        <time>2019-09-11T16:55:01Z</time>
      </trkpt>
      <trkpt lat="46.34027" lon="2.43181">
        <ele>413.02</ele>
        <time>2019-09-11T16:55:02Z</time>
      </trkpt>
      <trkpt lat="46.34033" lon="2.4319">
        <ele>412.54</ele>
        <time>2019-09-11T16:55:03Z</time>
      </trkpt>
      <trkpt lat="46.34063" lon="2.4322">
        <ele>412.54</ele>
        <time>2019-09-11T16:55:07Z</time>
      </trkpt>
      <trkpt lat="46.3407" lon="2.43225">
        <ele>412.54</ele>
        <time>2019-09-11T16:55:08Z</time>
      </trkpt>
      <trkpt lat="46.34132" lon="2.43247">
        <ele>411.58</ele>
        <time>2019-09-11T16:55:18Z</time>
      </trkpt>
      <trkpt lat="46.34133" lon="2.43249">
        <ele>411.1</ele>
        <time>2019-09-11T16:55:26Z</time>
      </trkpt>
      <trkpt lat="46.34135" lon="2.43249">
        <ele>411.1</ele>
        <time>2019-09-11T16:55:31Z</time>
      </trkpt>
      <trkpt lat="46.34136" lon="2.4325">
        <ele>411.1</ele>
        <time>2019-09-11T16:55:32Z</time>
      </trkpt>
      <trkpt lat="46.34138" lon="2.43253">
        <ele>411.1</ele>
        <time>2019-09-11T16:55:33Z</time>
      </trkpt>
      <trkpt lat="46.34143" lon="2.43274">
        <ele>411.1</ele>
        <time>2019-09-11T16:55:38Z</time>
      </trkpt>
      <trkpt lat="46.34143" lon="2.43281">
        <ele>410.62</ele>
        <time>2019-09-11T16:55:39Z</time>
      </trkpt>
      <trkpt lat="46.34144" lon="2.43304">
        <ele>408.7</ele>
        <time>2019-09-11T16:55:46Z</time>
      </trkpt>
      <trkpt lat="46.34145" lon="2.43306">
        <ele>408.7</ele>
        <time>2019-09-11T16:56:10Z</time>
      </trkpt>
      <trkpt lat="46.34145" lon="2.43306">
        <ele>408.7</ele>
        <time>2019-09-11T16:56:38Z</time>
      </trkpt>
      <trkpt lat="46.34145" lon="2.43307">
        <ele>408.7</ele>
        <time>2019-09-11T16:56:59Z</time>
      </trkpt>
      <trkpt lat="46.34144" lon="2.43307">
        <ele>408.7</ele>
        <time>2019-09-11T16:57:26Z</time>
      </trkpt>
      <trkpt lat="46.34143" lon="2.43307">
        <ele>408.7</ele>
        <time>2019-09-11T16:57:52Z</time>
      </trkpt>
      <trkpt lat="46.34143" lon="2.43306">
        <ele>408.7</ele>
        <time>2019-09-11T16:58:35Z</time>
      </trkpt>
      <trkpt lat="46.34142" lon="2.43308">
        <ele>408.7</ele>
        <time>2019-09-11T16:59:10Z</time>
      </trkpt>
      <trkpt lat="46.34143" lon="2.43306">
        <ele>409.18</ele>
        <time>2019-09-11T16:59:33Z</time>
      </trkpt>
      <trkpt lat="46.34143" lon="2.43306">
        <ele>409.18</ele>
        <time>2019-09-11T17:00:00Z</time>
      </trkpt>
      <trkpt lat="46.34144" lon="2.43306">
        <ele>409.18</ele>
        <time>2019-09-11T17:00:19Z</time>
      </trkpt>
      <trkpt lat="46.34145" lon="2.43305">
        <ele>409.18</ele>
        <time>2019-09-11T17:00:42Z</time>
      </trkpt>
      <trkpt lat="46.34144" lon="2.43306">
        <ele>409.18</ele>
        <time>2019-09-11T17:01:09Z</time>
      </trkpt>
      <trkpt lat="46.34142" lon="2.43307">
        <ele>409.18</ele>
        <time>2019-09-11T17:01:35Z</time>
      </trkpt>
      <trkpt lat="46.34143" lon="2.43306">
        <ele>409.18</ele>
        <time>2019-09-11T17:01:59Z</time>
      </trkpt>
      <trkpt lat="46.34144" lon="2.43305">
        <ele>409.18</ele>
        <time>2019-09-11T17:02:26Z</time>
      </trkpt>
      <trkpt lat="46.34145" lon="2.43304">
        <ele>409.18</ele>
        <time>2019-09-11T17:02:50Z</time>
      </trkpt>
      <trkpt lat="46.34145" lon="2.43304">
        <ele>409.18</ele>
        <time>2019-09-11T17:03:13Z</time>
      </trkpt>
      <trkpt lat="46.34145" lon="2.43305">
        <ele>409.18</ele>
        <time>2019-09-11T17:03:39Z</time>
      </trkpt>
      <trkpt lat="46.34145" lon="2.43312">
        <ele>409.18</ele>
        <time>2019-09-11T17:04:05Z</time>
      </trkpt>
      <trkpt lat="46.3415" lon="2.43343">
        <ele>408.7</ele>
        <time>2019-09-11T17:04:12Z</time>
      </trkpt>
      <trkpt lat="46.34153" lon="2.43354">
        <ele>408.7</ele>
        <time>2019-09-11T17:04:14Z</time>
      </trkpt>
      <trkpt lat="46.34175" lon="2.43387">
        <ele>407.26</ele>
        <time>2019-09-11T17:04:21Z</time>
      </trkpt>
      <trkpt lat="46.34177" lon="2.43387">
        <ele>406.77</ele>
        <time>2019-09-11T17:04:22Z</time>
      </trkpt>
      <trkpt lat="46.34179" lon="2.43388">
        <ele>406.29</ele>
        <time>2019-09-11T17:04:32Z</time>
      </trkpt>
      <trkpt lat="46.3418" lon="2.4339">
        <ele>406.29</ele>
        <time>2019-09-11T17:04:38Z</time>
      </trkpt>
      <trkpt lat="46.34192" lon="2.43404">
        <ele>405.81</ele>
        <time>2019-09-11T17:04:43Z</time>
      </trkpt>
      <trkpt lat="46.34197" lon="2.43406">
        <ele>405.33</ele>
        <time>2019-09-11T17:04:44Z</time>
      </trkpt>
      <trkpt lat="46.34201" lon="2.43405">
        <ele>405.33</ele>
        <time>2019-09-11T17:04:45Z</time>
      </trkpt>
      <trkpt lat="46.3423" lon="2.434">
        <ele>405.33</ele>
        <time>2019-09-11T17:04:54Z</time>
      </trkpt>
      <trkpt lat="46.34235" lon="2.43399">
        <ele>405.33</ele>
        <time>2019-09-11T17:04:55Z</time>
      </trkpt>
      <trkpt lat="46.34255" lon="2.43398">
        <ele>404.37</ele>
        <time>2019-09-11T17:05:00Z</time>
      </trkpt>
      <trkpt lat="46.34259" lon="2.43399">
        <ele>403.41</ele>
        <time>2019-09-11T17:05:01Z</time>
      </trkpt>
      <trkpt lat="46.34273" lon="2.43407">
        <ele>401.49</ele>
        <time>2019-09-11T17:05:04Z</time>
      </trkpt>
      <trkpt lat="46.34278" lon="2.43409">
        <ele>401.01</ele>
        <time>2019-09-11T17:05:05Z</time>
      </trkpt>
      <trkpt lat="46.34283" lon="2.43412">
        <ele>400.05</ele>
        <time>2019-09-11T17:05:06Z</time>
      </trkpt>
      <trkpt lat="46.34287" lon="2.43415">
        <ele>399.57</ele>
        <time>2019-09-11T17:05:07Z</time>
      </trkpt>
      <trkpt lat="46.3429" lon="2.43418">
        <ele>399.57</ele>
        <time>2019-09-11T17:05:08Z</time>
      </trkpt>
      <trkpt lat="46.34295" lon="2.43422">
        <ele>399.08</ele>
        <time>2019-09-11T17:05:09Z</time>
      </trkpt>
      <trkpt lat="46.343" lon="2.43424">
        <ele>398.6</ele>
        <time>2019-09-11T17:05:10Z</time>
      </trkpt>
      <trkpt lat="46.34336" lon="2.43445">
        <ele>396.2</ele>
        <time>2019-09-11T17:05:17Z</time>
      </trkpt>
      <trkpt lat="46.3435" lon="2.43451">
        <ele>395.72</ele>
        <time>2019-09-11T17:05:20Z</time>
      </trkpt>
      <trkpt lat="46.34356" lon="2.43451">
        <ele>395.24</ele>
        <time>2019-09-11T17:05:21Z</time>
      </trkpt>
      <trkpt lat="46.34361" lon="2.43451">
        <ele>395.24</ele>
        <time>2019-09-11T17:05:22Z</time>
      </trkpt>
      <trkpt lat="46.34442" lon="2.43423">
        <ele>392.36</ele>
        <time>2019-09-11T17:05:35Z</time>
      </trkpt>
      <trkpt lat="46.34455" lon="2.43423">
        <ele>391.87</ele>
        <time>2019-09-11T17:05:37Z</time>
      </trkpt>
      <trkpt lat="46.34462" lon="2.43424">
        <ele>391.39</ele>
        <time>2019-09-11T17:05:38Z</time>
      </trkpt>
      <trkpt lat="46.34468" lon="2.43426">
        <ele>391.39</ele>
        <time>2019-09-11T17:05:39Z</time>
      </trkpt>
      <trkpt lat="46.34487" lon="2.43434">
        <ele>390.91</ele>
        <time>2019-09-11T17:05:42Z</time>
      </trkpt>
      <trkpt lat="46.34493" lon="2.43436">
        <ele>390.91</ele>
        <time>2019-09-11T17:05:43Z</time>
      </trkpt>
      <trkpt lat="46.34499" lon="2.43438">
        <ele>390.91</ele>
        <time>2019-09-11T17:05:44Z</time>
      </trkpt>
      <trkpt lat="46.34568" lon="2.43442">
        <ele>388.99</ele>
        <time>2019-09-11T17:05:54Z</time>
      </trkpt>
      <trkpt lat="46.34596" lon="2.43437">
        <ele>388.99</ele>
        <time>2019-09-11T17:05:59Z</time>
      </trkpt>
      <trkpt lat="46.34601" lon="2.43434">
        <ele>388.99</ele>
        <time>2019-09-11T17:06:00Z</time>
      </trkpt>
      <trkpt lat="46.3461" lon="2.43426">
        <ele>388.51</ele>
        <time>2019-09-11T17:06:02Z</time>
      </trkpt>
      <trkpt lat="46.34656" lon="2.43379">
        <ele>388.51</ele>
        <time>2019-09-11T17:06:14Z</time>
      </trkpt>
      <trkpt lat="46.3471" lon="2.43346">
        <ele>388.03</ele>
        <time>2019-09-11T17:06:26Z</time>
      </trkpt>
      <trkpt lat="46.34767" lon="2.43318">
        <ele>386.59</ele>
        <time>2019-09-11T17:06:38Z</time>
      </trkpt>
      <trkpt lat="46.34834" lon="2.43284">
        <ele>386.11</ele>
        <time>2019-09-11T17:06:53Z</time>
      </trkpt>
      <trkpt lat="46.34849" lon="2.43276">
        <ele>386.11</ele>
        <time>2019-09-11T17:06:56Z</time>
      </trkpt>
      <trkpt lat="46.34888" lon="2.43255">
        <ele>386.11</ele>
        <time>2019-09-11T17:07:05Z</time>
      </trkpt>
      <trkpt lat="46.34902" lon="2.43215">
        <ele>386.11</ele>
        <time>2019-09-11T17:07:12Z</time>
      </trkpt>
      <trkpt lat="46.34896" lon="2.4319">
        <ele>386.11</ele>
        <time>2019-09-11T17:07:16Z</time>
      </trkpt>
      <trkpt lat="46.34904" lon="2.43163">
        <ele>386.11</ele>
        <time>2019-09-11T17:07:21Z</time>
      </trkpt>
      <trkpt lat="46.34916" lon="2.43156">
        <ele>386.11</ele>
        <time>2019-09-11T17:07:24Z</time>
      </trkpt>
      <trkpt lat="46.34928" lon="2.43115">
        <ele>385.63</ele>
        <time>2019-09-11T17:07:31Z</time>
      </trkpt>
      <trkpt lat="46.34943" lon="2.43048">
        <ele>385.15</ele>
        <time>2019-09-11T17:07:41Z</time>
      </trkpt>
      <trkpt lat="46.34953" lon="2.43024">
        <ele>384.18</ele>
        <time>2019-09-11T17:07:45Z</time>
      </trkpt>
      <trkpt lat="46.34972" lon="2.42967">
        <ele>381.78</ele>
        <time>2019-09-11T17:07:53Z</time>
      </trkpt>
      <trkpt lat="46.3498" lon="2.42947">
        <ele>381.3</ele>
        <time>2019-09-11T17:07:56Z</time>
      </trkpt>
      <trkpt lat="46.34986" lon="2.42931">
        <ele>380.34</ele>
        <time>2019-09-11T17:07:58Z</time>
      </trkpt>
      <trkpt lat="46.34997" lon="2.42912">
        <ele>379.38</ele>
        <time>2019-09-11T17:08:01Z</time>
      </trkpt>
      <trkpt lat="46.35017" lon="2.42891">
        <ele>377.94</ele>
        <time>2019-09-11T17:08:05Z</time>
      </trkpt>
      <trkpt lat="46.35022" lon="2.42885">
        <ele>377.45</ele>
        <time>2019-09-11T17:08:06Z</time>
      </trkpt>
      <trkpt lat="46.35039" lon="2.42854">
        <ele>375.53</ele>
        <time>2019-09-11T17:08:10Z</time>
      </trkpt>
      <trkpt lat="46.35047" lon="2.42842">
        <ele>374.57</ele>
        <time>2019-09-11T17:08:12Z</time>
      </trkpt>
      <trkpt lat="46.35056" lon="2.42833">
        <ele>374.57</ele>
        <time>2019-09-11T17:08:14Z</time>
      </trkpt>
      <trkpt lat="46.3506" lon="2.42831">
        <ele>374.57</ele>
        <time>2019-09-11T17:08:15Z</time>
      </trkpt>
      <trkpt lat="46.35065" lon="2.4283">
        <ele>374.57</ele>
        <time>2019-09-11T17:08:16Z</time>
      </trkpt>
      <trkpt lat="46.3507" lon="2.42829">
        <ele>374.57</ele>
        <time>2019-09-11T17:08:17Z</time>
      </trkpt>
      <trkpt lat="46.35075" lon="2.42828">
        <ele>374.57</ele>
        <time>2019-09-11T17:08:18Z</time>
      </trkpt>
      <trkpt lat="46.35107" lon="2.42825">
        <ele>376.01</ele>
        <time>2019-09-11T17:08:24Z</time>
      </trkpt>
      <trkpt lat="46.35126" lon="2.42826">
        <ele>376.49</ele>
        <time>2019-09-11T17:08:28Z</time>
      </trkpt>
      <trkpt lat="46.35146" lon="2.42824">
        <ele>376.97</ele>
        <time>2019-09-11T17:08:32Z</time>
      </trkpt>
      <trkpt lat="46.35151" lon="2.42825">
        <ele>377.45</ele>
        <time>2019-09-11T17:08:33Z</time>
      </trkpt>
      <trkpt lat="46.35155" lon="2.42826">
        <ele>377.45</ele>
        <time>2019-09-11T17:08:34Z</time>
      </trkpt>
      <trkpt lat="46.35159" lon="2.42827">
        <ele>377.45</ele>
        <time>2019-09-11T17:08:35Z</time>
      </trkpt>
      <trkpt lat="46.35164" lon="2.42829">
        <ele>377.45</ele>
        <time>2019-09-11T17:08:36Z</time>
      </trkpt>
      <trkpt lat="46.35173" lon="2.42833">
        <ele>377.45</ele>
        <time>2019-09-11T17:08:38Z</time>
      </trkpt>
      <trkpt lat="46.35203" lon="2.42851">
        <ele>377.45</ele>
        <time>2019-09-11T17:08:44Z</time>
      </trkpt>
      <trkpt lat="46.35209" lon="2.42852">
        <ele>377.45</ele>
        <time>2019-09-11T17:08:45Z</time>
      </trkpt>
      <trkpt lat="46.35214" lon="2.42853">
        <ele>377.45</ele>
        <time>2019-09-11T17:08:46Z</time>
      </trkpt>
      <trkpt lat="46.3522" lon="2.42852">
        <ele>377.45</ele>
        <time>2019-09-11T17:08:47Z</time>
      </trkpt>
      <trkpt lat="46.35226" lon="2.42851">
        <ele>377.45</ele>
        <time>2019-09-11T17:08:48Z</time>
      </trkpt>
      <trkpt lat="46.35269" lon="2.42833">
        <ele>376.49</ele>
        <time>2019-09-11T17:08:56Z</time>
      </trkpt>
      <trkpt lat="46.35289" lon="2.42818">
        <ele>376.01</ele>
        <time>2019-09-11T17:09:00Z</time>
      </trkpt>
      <trkpt lat="46.35346" lon="2.42786">
        <ele>375.53</ele>
        <time>2019-09-11T17:09:11Z</time>
      </trkpt>
      <trkpt lat="46.35385" lon="2.42765">
        <ele>378.9</ele>
        <time>2019-09-11T17:09:20Z</time>
      </trkpt>
      <trkpt lat="46.3542" lon="2.42748">
        <ele>380.34</ele>
        <time>2019-09-11T17:09:28Z</time>
      </trkpt>
      <trkpt lat="46.35438" lon="2.42738">
        <ele>381.78</ele>
        <time>2019-09-11T17:09:32Z</time>
      </trkpt>
      <trkpt lat="46.35443" lon="2.42736">
        <ele>381.78</ele>
        <time>2019-09-11T17:09:33Z</time>
      </trkpt>
      <trkpt lat="46.35448" lon="2.42735">
        <ele>381.78</ele>
        <time>2019-09-11T17:09:34Z</time>
      </trkpt>
      <trkpt lat="46.35502" lon="2.4273">
        <ele>381.78</ele>
        <time>2019-09-11T17:09:45Z</time>
      </trkpt>
      <trkpt lat="46.35507" lon="2.4273">
        <ele>381.78</ele>
        <time>2019-09-11T17:09:46Z</time>
      </trkpt>
      <trkpt lat="46.35512" lon="2.4273">
        <ele>381.78</ele>
        <time>2019-09-11T17:09:47Z</time>
      </trkpt>
      <trkpt lat="46.35517" lon="2.4273">
        <ele>381.78</ele>
        <time>2019-09-11T17:09:48Z</time>
      </trkpt>
      <trkpt lat="46.35521" lon="2.42729">
        <ele>381.78</ele>
        <time>2019-09-11T17:09:49Z</time>
      </trkpt>
      <trkpt lat="46.35585" lon="2.42716">
        <ele>383.22</ele>
        <time>2019-09-11T17:10:03Z</time>
      </trkpt>
      <trkpt lat="46.35589" lon="2.42714">
        <ele>383.7</ele>
        <time>2019-09-11T17:10:04Z</time>
      </trkpt>
      <trkpt lat="46.35635" lon="2.42679">
        <ele>385.63</ele>
        <time>2019-09-11T17:10:18Z</time>
      </trkpt>
      <trkpt lat="46.35651" lon="2.42662">
        <ele>386.11</ele>
        <time>2019-09-11T17:10:23Z</time>
      </trkpt>
      <trkpt lat="46.35654" lon="2.42657">
        <ele>386.59</ele>
        <time>2019-09-11T17:10:24Z</time>
      </trkpt>
      <trkpt lat="46.35656" lon="2.42651">
        <ele>386.59</ele>
        <time>2019-09-11T17:10:25Z</time>
      </trkpt>
      <trkpt lat="46.35656" lon="2.42646">
        <ele>386.59</ele>
        <time>2019-09-11T17:10:26Z</time>
      </trkpt>
      <trkpt lat="46.35656" lon="2.4264">
        <ele>386.59</ele>
        <time>2019-09-11T17:10:27Z</time>
      </trkpt>
      <trkpt lat="46.35656" lon="2.42633">
        <ele>386.59</ele>
        <time>2019-09-11T17:10:28Z</time>
      </trkpt>
      <trkpt lat="46.35657" lon="2.42627">
        <ele>386.59</ele>
        <time>2019-09-11T17:10:29Z</time>
      </trkpt>
      <trkpt lat="46.3566" lon="2.42602">
        <ele>387.55</ele>
        <time>2019-09-11T17:10:33Z</time>
      </trkpt>
      <trkpt lat="46.35661" lon="2.42596">
        <ele>387.55</ele>
        <time>2019-09-11T17:10:34Z</time>
      </trkpt>
      <trkpt lat="46.35663" lon="2.4259">
        <ele>387.55</ele>
        <time>2019-09-11T17:10:35Z</time>
      </trkpt>
      <trkpt lat="46.35664" lon="2.42584">
        <ele>387.55</ele>
        <time>2019-09-11T17:10:36Z</time>
      </trkpt>
      <trkpt lat="46.35666" lon="2.42578">
        <ele>387.55</ele>
        <time>2019-09-11T17:10:37Z</time>
      </trkpt>
      <trkpt lat="46.35675" lon="2.4254">
        <ele>387.55</ele>
        <time>2019-09-11T17:10:44Z</time>
      </trkpt>
      <trkpt lat="46.35678" lon="2.42536">
        <ele>388.03</ele>
        <time>2019-09-11T17:10:45Z</time>
      </trkpt>
      <trkpt lat="46.35682" lon="2.42533">
        <ele>388.03</ele>
        <time>2019-09-11T17:10:46Z</time>
      </trkpt>
      <trkpt lat="46.35691" lon="2.42528">
        <ele>388.51</ele>
        <time>2019-09-11T17:10:48Z</time>
      </trkpt>
      <trkpt lat="46.35753" lon="2.42527">
        <ele>388.51</ele>
        <time>2019-09-11T17:11:01Z</time>
      </trkpt>
      <trkpt lat="46.35758" lon="2.42526">
        <ele>388.51</ele>
        <time>2019-09-11T17:11:02Z</time>
      </trkpt>
      <trkpt lat="46.35762" lon="2.42525">
        <ele>388.51</ele>
        <time>2019-09-11T17:11:03Z</time>
      </trkpt>
      <trkpt lat="46.35766" lon="2.42523">
        <ele>388.51</ele>
        <time>2019-09-11T17:11:04Z</time>
      </trkpt>
      <trkpt lat="46.35771" lon="2.42521">
        <ele>388.51</ele>
        <time>2019-09-11T17:11:05Z</time>
      </trkpt>
      <trkpt lat="46.35779" lon="2.42516">
        <ele>387.55</ele>
        <time>2019-09-11T17:11:07Z</time>
      </trkpt>
      <trkpt lat="46.35782" lon="2.42513">
        <ele>387.55</ele>
        <time>2019-09-11T17:11:08Z</time>
      </trkpt>
      <trkpt lat="46.35786" lon="2.42508">
        <ele>387.55</ele>
        <time>2019-09-11T17:11:09Z</time>
      </trkpt>
      <trkpt lat="46.35796" lon="2.42496">
        <ele>386.59</ele>
        <time>2019-09-11T17:11:12Z</time>
      </trkpt>
      <trkpt lat="46.35801" lon="2.42493">
        <ele>386.59</ele>
        <time>2019-09-11T17:11:13Z</time>
      </trkpt>
      <trkpt lat="46.35806" lon="2.42491">
        <ele>386.11</ele>
        <time>2019-09-11T17:11:14Z</time>
      </trkpt>
      <trkpt lat="46.35842" lon="2.42482">
        <ele>384.18</ele>
        <time>2019-09-11T17:11:20Z</time>
      </trkpt>
      <trkpt lat="46.35849" lon="2.42485">
        <ele>384.18</ele>
        <time>2019-09-11T17:11:21Z</time>
      </trkpt>
      <trkpt lat="46.35882" lon="2.42493">
        <ele>381.78</ele>
        <time>2019-09-11T17:11:26Z</time>
      </trkpt>
      <trkpt lat="46.35889" lon="2.42492">
        <ele>381.78</ele>
        <time>2019-09-11T17:11:27Z</time>
      </trkpt>
      <trkpt lat="46.35911" lon="2.42486">
        <ele>380.34</ele>
        <time>2019-09-11T17:11:30Z</time>
      </trkpt>
      <trkpt lat="46.3592" lon="2.42481">
        <ele>379.38</ele>
        <time>2019-09-11T17:11:31Z</time>
      </trkpt>
      <trkpt lat="46.35926" lon="2.42476">
        <ele>378.9</ele>
        <time>2019-09-11T17:11:32Z</time>
      </trkpt>
      <trkpt lat="46.35964" lon="2.42444">
        <ele>376.49</ele>
        <time>2019-09-11T17:11:37Z</time>
      </trkpt>
      <trkpt lat="46.35997" lon="2.42429">
        <ele>374.09</ele>
        <time>2019-09-11T17:11:42Z</time>
      </trkpt>
      <trkpt lat="46.36001" lon="2.42429">
        <ele>374.09</ele>
        <time>2019-09-11T17:11:43Z</time>
      </trkpt>
      <trkpt lat="46.36005" lon="2.42432">
        <ele>374.09</ele>
        <time>2019-09-11T17:11:44Z</time>
      </trkpt>
      <trkpt lat="46.36006" lon="2.42437">
        <ele>374.09</ele>
        <time>2019-09-11T17:11:45Z</time>
      </trkpt>
      <trkpt lat="46.36006" lon="2.42442">
        <ele>374.09</ele>
        <time>2019-09-11T17:11:46Z</time>
      </trkpt>
      <trkpt lat="46.36005" lon="2.42447">
        <ele>374.09</ele>
        <time>2019-09-11T17:11:47Z</time>
      </trkpt>
      <trkpt lat="46.36003" lon="2.42453">
        <ele>374.09</ele>
        <time>2019-09-11T17:11:48Z</time>
      </trkpt>
      <trkpt lat="46.36002" lon="2.42459">
        <ele>374.09</ele>
        <time>2019-09-11T17:11:49Z</time>
      </trkpt>
      <trkpt lat="46.36001" lon="2.42467">
        <ele>374.09</ele>
        <time>2019-09-11T17:11:50Z</time>
      </trkpt>
      <trkpt lat="46.36" lon="2.42474">
        <ele>374.09</ele>
        <time>2019-09-11T17:11:51Z</time>
      </trkpt>
      <trkpt lat="46.36" lon="2.42483">
        <ele>374.09</ele>
        <time>2019-09-11T17:11:52Z</time>
      </trkpt>
      <trkpt lat="46.36014" lon="2.42607">
        <ele>375.53</ele>
        <time>2019-09-11T17:12:05Z</time>
      </trkpt>
      <trkpt lat="46.3603" lon="2.42677">
        <ele>375.53</ele>
        <time>2019-09-11T17:12:12Z</time>
      </trkpt>
      <trkpt lat="46.36041" lon="2.42716">
        <ele>376.01</ele>
        <time>2019-09-11T17:12:16Z</time>
      </trkpt>
      <trkpt lat="46.36043" lon="2.42726">
        <ele>376.01</ele>
        <time>2019-09-11T17:12:17Z</time>
      </trkpt>
      <trkpt lat="46.36043" lon="2.42737">
        <ele>376.01</ele>
        <time>2019-09-11T17:12:18Z</time>
      </trkpt>
      <trkpt lat="46.36039" lon="2.42862">
        <ele>376.49</ele>
        <time>2019-09-11T17:12:31Z</time>
      </trkpt>
      <trkpt lat="46.36039" lon="2.42946">
        <ele>377.94</ele>
        <time>2019-09-11T17:12:42Z</time>
      </trkpt>
      <trkpt lat="46.36039" lon="2.42953">
        <ele>377.94</ele>
        <time>2019-09-11T17:12:43Z</time>
      </trkpt>
      <trkpt lat="46.36038" lon="2.43017">
        <ele>378.42</ele>
        <time>2019-09-11T17:12:55Z</time>
      </trkpt>
      <trkpt lat="46.36037" lon="2.43076">
        <ele>378.42</ele>
        <time>2019-09-11T17:13:06Z</time>
      </trkpt>
      <trkpt lat="46.36045" lon="2.43112">
        <ele>377.45</ele>
        <time>2019-09-11T17:13:12Z</time>
      </trkpt>
      <trkpt lat="46.36047" lon="2.43118">
        <ele>377.45</ele>
        <time>2019-09-11T17:13:13Z</time>
      </trkpt>
      <trkpt lat="46.36076" lon="2.43207">
        <ele>376.01</ele>
        <time>2019-09-11T17:13:25Z</time>
      </trkpt>
      <trkpt lat="46.36089" lon="2.43232">
        <ele>374.57</ele>
        <time>2019-09-11T17:13:29Z</time>
      </trkpt>
      <trkpt lat="46.36115" lon="2.43269">
        <ele>372.17</ele>
        <time>2019-09-11T17:13:38Z</time>
      </trkpt>
      <trkpt lat="46.36135" lon="2.43303">
        <ele>370.24</ele>
        <time>2019-09-11T17:13:43Z</time>
      </trkpt>
      <trkpt lat="46.3614" lon="2.43311">
        <ele>369.76</ele>
        <time>2019-09-11T17:13:44Z</time>
      </trkpt>
      <trkpt lat="46.36178" lon="2.43403">
        <ele>367.36</ele>
        <time>2019-09-11T17:13:56Z</time>
      </trkpt>
      <trkpt lat="46.36222" lon="2.43495">
        <ele>364.48</ele>
        <time>2019-09-11T17:14:07Z</time>
      </trkpt>
      <trkpt lat="46.36241" lon="2.43517">
        <ele>363.52</ele>
        <time>2019-09-11T17:14:11Z</time>
      </trkpt>
      <trkpt lat="46.36304" lon="2.43575">
        <ele>361.59</ele>
        <time>2019-09-11T17:14:23Z</time>
      </trkpt>
      <trkpt lat="46.36342" lon="2.43601">
        <ele>361.11</ele>
        <time>2019-09-11T17:14:30Z</time>
      </trkpt>
      <trkpt lat="46.36386" lon="2.43653">
        <ele>358.23</ele>
        <time>2019-09-11T17:14:40Z</time>
      </trkpt>
      <trkpt lat="46.36431" lon="2.43705">
        <ele>355.34</ele>
        <time>2019-09-11T17:14:49Z</time>
      </trkpt>
      <trkpt lat="46.36479" lon="2.43763">
        <ele>352.46</ele>
        <time>2019-09-11T17:14:58Z</time>
      </trkpt>
      <trkpt lat="46.36483" lon="2.43768">
        <ele>352.46</ele>
        <time>2019-09-11T17:14:59Z</time>
      </trkpt>
      <trkpt lat="46.36513" lon="2.43788">
        <ele>351.98</ele>
        <time>2019-09-11T17:15:04Z</time>
      </trkpt>
      <trkpt lat="46.36527" lon="2.43791">
        <ele>351.5</ele>
        <time>2019-09-11T17:15:06Z</time>
      </trkpt>
      <trkpt lat="46.36547" lon="2.43791">
        <ele>351.5</ele>
        <time>2019-09-11T17:15:09Z</time>
      </trkpt>
      <trkpt lat="46.36566" lon="2.43795">
        <ele>350.54</ele>
        <time>2019-09-11T17:15:12Z</time>
      </trkpt>
      <trkpt lat="46.36592" lon="2.4381">
        <ele>348.62</ele>
        <time>2019-09-11T17:15:16Z</time>
      </trkpt>
      <trkpt lat="46.3663" lon="2.43842">
        <ele>345.25</ele>
        <time>2019-09-11T17:15:22Z</time>
      </trkpt>
      <trkpt lat="46.36652" lon="2.43864">
        <ele>343.33</ele>
        <time>2019-09-11T17:15:26Z</time>
      </trkpt>
      <trkpt lat="46.36706" lon="2.43887">
        <ele>342.37</ele>
        <time>2019-09-11T17:15:35Z</time>
      </trkpt>
      <trkpt lat="46.36733" lon="2.43928">
        <ele>343.33</ele>
        <time>2019-09-11T17:15:41Z</time>
      </trkpt>
      <trkpt lat="46.3674" lon="2.4396">
        <ele>344.77</ele>
        <time>2019-09-11T17:15:45Z</time>
      </trkpt>
      <trkpt lat="46.36741" lon="2.43966">
        <ele>344.77</ele>
        <time>2019-09-11T17:15:46Z</time>
      </trkpt>
      <trkpt lat="46.36763" lon="2.44011">
        <ele>348.62</ele>
        <time>2019-09-11T17:15:56Z</time>
      </trkpt>
      <trkpt lat="46.36802" lon="2.44047">
        <ele>349.1</ele>
        <time>2019-09-11T17:16:08Z</time>
      </trkpt>
      <trkpt lat="46.36825" lon="2.44073">
        <ele>348.62</ele>
        <time>2019-09-11T17:16:15Z</time>
      </trkpt>
      <trkpt lat="46.36883" lon="2.44141">
        <ele>349.58</ele>
        <time>2019-09-11T17:16:33Z</time>
      </trkpt>
      <trkpt lat="46.36886" lon="2.44145">
        <ele>349.58</ele>
        <time>2019-09-11T17:16:34Z</time>
      </trkpt>
      <trkpt lat="46.36893" lon="2.44159">
        <ele>350.06</ele>
        <time>2019-09-11T17:16:37Z</time>
      </trkpt>
      <trkpt lat="46.36895" lon="2.44164">
        <ele>350.06</ele>
        <time>2019-09-11T17:16:38Z</time>
      </trkpt>
      <trkpt lat="46.36896" lon="2.4417">
        <ele>350.06</ele>
        <time>2019-09-11T17:16:39Z</time>
      </trkpt>
      <trkpt lat="46.36896" lon="2.44195">
        <ele>350.06</ele>
        <time>2019-09-11T17:16:44Z</time>
      </trkpt>
      <trkpt lat="46.36894" lon="2.44199">
        <ele>350.06</ele>
        <time>2019-09-11T17:16:45Z</time>
      </trkpt>
      <trkpt lat="46.36891" lon="2.44203">
        <ele>350.06</ele>
        <time>2019-09-11T17:16:46Z</time>
      </trkpt>
      <trkpt lat="46.36887" lon="2.44205">
        <ele>350.06</ele>
        <time>2019-09-11T17:16:47Z</time>
      </trkpt>
      <trkpt lat="46.36883" lon="2.44205">
        <ele>350.06</ele>
        <time>2019-09-11T17:16:48Z</time>
      </trkpt>
      <trkpt lat="46.36879" lon="2.44205">
        <ele>350.54</ele>
        <time>2019-09-11T17:16:49Z</time>
      </trkpt>
      <trkpt lat="46.36875" lon="2.44206">
        <ele>350.54</ele>
        <time>2019-09-11T17:16:50Z</time>
      </trkpt>
      <trkpt lat="46.36871" lon="2.44207">
        <ele>350.54</ele>
        <time>2019-09-11T17:16:51Z</time>
      </trkpt>
      <trkpt lat="46.368" lon="2.44229">
        <ele>351.5</ele>
        <time>2019-09-11T17:17:08Z</time>
      </trkpt>
      <trkpt lat="46.36787" lon="2.44231">
        <ele>351.5</ele>
        <time>2019-09-11T17:17:11Z</time>
      </trkpt>
      <trkpt lat="46.36725" lon="2.44262">
        <ele>353.9</ele>
        <time>2019-09-11T17:17:28Z</time>
      </trkpt>
      <trkpt lat="46.36696" lon="2.44282">
        <ele>354.86</ele>
        <time>2019-09-11T17:17:36Z</time>
      </trkpt>
      <trkpt lat="46.36692" lon="2.44282">
        <ele>354.86</ele>
        <time>2019-09-11T17:17:37Z</time>
      </trkpt>
      <trkpt lat="46.36687" lon="2.44283">
        <ele>354.86</ele>
        <time>2019-09-11T17:17:38Z</time>
      </trkpt>
      <trkpt lat="46.36665" lon="2.44283">
        <ele>355.34</ele>
        <time>2019-09-11T17:17:43Z</time>
      </trkpt>
      <trkpt lat="46.3666" lon="2.44283">
        <ele>355.34</ele>
        <time>2019-09-11T17:17:44Z</time>
      </trkpt>
      <trkpt lat="46.36651" lon="2.44283">
        <ele>355.34</ele>
        <time>2019-09-11T17:17:46Z</time>
      </trkpt>
      <trkpt lat="46.36625" lon="2.44281">
        <ele>355.34</ele>
        <time>2019-09-11T17:17:52Z</time>
      </trkpt>
      <trkpt lat="46.36613" lon="2.44275">
        <ele>355.83</ele>
        <time>2019-09-11T17:17:55Z</time>
      </trkpt>
      <trkpt lat="46.36608" lon="2.44275">
        <ele>355.83</ele>
        <time>2019-09-11T17:17:56Z</time>
      </trkpt>
      <trkpt lat="46.36604" lon="2.44276">
        <ele>355.83</ele>
        <time>2019-09-11T17:17:57Z</time>
      </trkpt>
      <trkpt lat="46.366" lon="2.4428">
        <ele>356.79</ele>
        <time>2019-09-11T17:17:58Z</time>
      </trkpt>
      <trkpt lat="46.36599" lon="2.44284">
        <ele>356.79</ele>
        <time>2019-09-11T17:17:59Z</time>
      </trkpt>
      <trkpt lat="46.36597" lon="2.44289">
        <ele>357.27</ele>
        <time>2019-09-11T17:18:00Z</time>
      </trkpt>
      <trkpt lat="46.36595" lon="2.44294">
        <ele>357.27</ele>
        <time>2019-09-11T17:18:01Z</time>
      </trkpt>
      <trkpt lat="46.36594" lon="2.443">
        <ele>357.27</ele>
        <time>2019-09-11T17:18:02Z</time>
      </trkpt>
      <trkpt lat="46.36593" lon="2.44305">
        <ele>357.27</ele>
        <time>2019-09-11T17:18:03Z</time>
      </trkpt>
      <trkpt lat="46.3659" lon="2.44343">
        <ele>357.75</ele>
        <time>2019-09-11T17:18:09Z</time>
      </trkpt>
      <trkpt lat="46.36594" lon="2.4439">
        <ele>358.23</ele>
        <time>2019-09-11T17:18:16Z</time>
      </trkpt>
      <trkpt lat="46.36594" lon="2.44411">
        <ele>358.23</ele>
        <time>2019-09-11T17:18:19Z</time>
      </trkpt>
      <trkpt lat="46.36593" lon="2.44417">
        <ele>358.23</ele>
        <time>2019-09-11T17:18:20Z</time>
      </trkpt>
      <trkpt lat="46.36592" lon="2.44424">
        <ele>358.23</ele>
        <time>2019-09-11T17:18:21Z</time>
      </trkpt>
      <trkpt lat="46.36591" lon="2.44431">
        <ele>358.23</ele>
        <time>2019-09-11T17:18:22Z</time>
      </trkpt>
      <trkpt lat="46.3659" lon="2.44437">
        <ele>358.23</ele>
        <time>2019-09-11T17:18:23Z</time>
      </trkpt>
      <trkpt lat="46.36589" lon="2.44504">
        <ele>358.71</ele>
        <time>2019-09-11T17:18:33Z</time>
      </trkpt>
      <trkpt lat="46.36589" lon="2.44518">
        <ele>358.71</ele>
        <time>2019-09-11T17:18:35Z</time>
      </trkpt>
      <trkpt lat="46.3659" lon="2.44525">
        <ele>358.71</ele>
        <time>2019-09-11T17:18:36Z</time>
      </trkpt>
      <trkpt lat="46.3659" lon="2.44532">
        <ele>358.71</ele>
        <time>2019-09-11T17:18:37Z</time>
      </trkpt>
      <trkpt lat="46.36592" lon="2.44538">
        <ele>358.71</ele>
        <time>2019-09-11T17:18:38Z</time>
      </trkpt>
      <trkpt lat="46.36595" lon="2.44542">
        <ele>359.19</ele>
        <time>2019-09-11T17:18:39Z</time>
      </trkpt>
      <trkpt lat="46.36599" lon="2.44545">
        <ele>359.19</ele>
        <time>2019-09-11T17:18:40Z</time>
      </trkpt>
      <trkpt lat="46.36604" lon="2.44545">
        <ele>359.19</ele>
        <time>2019-09-11T17:18:41Z</time>
      </trkpt>
      <trkpt lat="46.36609" lon="2.44546">
        <ele>359.19</ele>
        <time>2019-09-11T17:18:42Z</time>
      </trkpt>
      <trkpt lat="46.36614" lon="2.44546">
        <ele>359.19</ele>
        <time>2019-09-11T17:18:43Z</time>
      </trkpt>
      <trkpt lat="46.36649" lon="2.44551">
        <ele>359.19</ele>
        <time>2019-09-11T17:18:50Z</time>
      </trkpt>
      <trkpt lat="46.36653" lon="2.44553">
        <ele>359.19</ele>
        <time>2019-09-11T17:18:51Z</time>
      </trkpt>
      <trkpt lat="46.36658" lon="2.44556">
        <ele>359.19</ele>
        <time>2019-09-11T17:18:52Z</time>
      </trkpt>
      <trkpt lat="46.36662" lon="2.4456">
        <ele>359.19</ele>
        <time>2019-09-11T17:18:53Z</time>
      </trkpt>
      <trkpt lat="46.36666" lon="2.44565">
        <ele>359.19</ele>
        <time>2019-09-11T17:18:54Z</time>
      </trkpt>
      <trkpt lat="46.36669" lon="2.44571">
        <ele>359.19</ele>
        <time>2019-09-11T17:18:55Z</time>
      </trkpt>
      <trkpt lat="46.36671" lon="2.44577">
        <ele>359.19</ele>
        <time>2019-09-11T17:18:56Z</time>
      </trkpt>
      <trkpt lat="46.36682" lon="2.44605">
        <ele>359.67</ele>
        <time>2019-09-11T17:19:01Z</time>
      </trkpt>
      <trkpt lat="46.36709" lon="2.44675">
        <ele>361.59</ele>
        <time>2019-09-11T17:19:15Z</time>
      </trkpt>
      <trkpt lat="46.36749" lon="2.44712">
        <ele>362.55</ele>
        <time>2019-09-11T17:19:28Z</time>
      </trkpt>
      <trkpt lat="46.36749" lon="2.44718">
        <ele>362.55</ele>
        <time>2019-09-11T17:19:29Z</time>
      </trkpt>
      <trkpt lat="46.36747" lon="2.44723">
        <ele>362.55</ele>
        <time>2019-09-11T17:19:30Z</time>
      </trkpt>
      <trkpt lat="46.36745" lon="2.44727">
        <ele>362.55</ele>
        <time>2019-09-11T17:19:31Z</time>
      </trkpt>
      <trkpt lat="46.36742" lon="2.44732">
        <ele>363.04</ele>
        <time>2019-09-11T17:19:32Z</time>
      </trkpt>
      <trkpt lat="46.36731" lon="2.44752">
        <ele>363.04</ele>
        <time>2019-09-11T17:19:37Z</time>
      </trkpt>
      <trkpt lat="46.36731" lon="2.44757">
        <ele>363.04</ele>
        <time>2019-09-11T17:19:38Z</time>
      </trkpt>
      <trkpt lat="46.36732" lon="2.44763">
        <ele>363.04</ele>
        <time>2019-09-11T17:19:39Z</time>
      </trkpt>
      <trkpt lat="46.36752" lon="2.44815">
        <ele>362.07</ele>
        <time>2019-09-11T17:19:47Z</time>
      </trkpt>
      <trkpt lat="46.36761" lon="2.44834">
        <ele>361.11</ele>
        <time>2019-09-11T17:19:50Z</time>
      </trkpt>
      <trkpt lat="46.36765" lon="2.4484">
        <ele>361.11</ele>
        <time>2019-09-11T17:19:51Z</time>
      </trkpt>
      <trkpt lat="46.36769" lon="2.44844">
        <ele>361.11</ele>
        <time>2019-09-11T17:19:52Z</time>
      </trkpt>
      <trkpt lat="46.36777" lon="2.44852">
        <ele>361.11</ele>
        <time>2019-09-11T17:19:54Z</time>
      </trkpt>
      <trkpt lat="46.3678" lon="2.44858">
        <ele>361.11</ele>
        <time>2019-09-11T17:19:55Z</time>
      </trkpt>
      <trkpt lat="46.36785" lon="2.4487">
        <ele>361.11</ele>
        <time>2019-09-11T17:19:57Z</time>
      </trkpt>
      <trkpt lat="46.36787" lon="2.44877">
        <ele>361.11</ele>
        <time>2019-09-11T17:19:58Z</time>
      </trkpt>
      <trkpt lat="46.36789" lon="2.44883">
        <ele>361.11</ele>
        <time>2019-09-11T17:19:59Z</time>
      </trkpt>
      <trkpt lat="46.36796" lon="2.44901">
        <ele>361.11</ele>
        <time>2019-09-11T17:20:02Z</time>
      </trkpt>
      <trkpt lat="46.36774" lon="2.44895">
        <ele>362.07</ele>
        <time>2019-09-11T17:39:52Z</time>
      </trkpt>
      <trkpt lat="46.36748" lon="2.44911">
        <ele>363.04</ele>
        <time>2019-09-11T17:40:00Z</time>
      </trkpt>
      <trkpt lat="46.36741" lon="2.44915">
        <ele>363.04</ele>
        <time>2019-09-11T17:40:02Z</time>
      </trkpt>
      <trkpt lat="46.36737" lon="2.44916">
        <ele>363.04</ele>
        <time>2019-09-11T17:40:03Z</time>
      </trkpt>
      <trkpt lat="46.36707" lon="2.44921">
        <ele>363.04</ele>
        <time>2019-09-11T17:40:10Z</time>
      </trkpt>
      <trkpt lat="46.36702" lon="2.44922">
        <ele>363.04</ele>
        <time>2019-09-11T17:40:11Z</time>
      </trkpt>
      <trkpt lat="46.36698" lon="2.44923">
        <ele>363.04</ele>
        <time>2019-09-11T17:40:12Z</time>
      </trkpt>
      <trkpt lat="46.36614" lon="2.44953">
        <ele>363.52</ele>
        <time>2019-09-11T17:40:31Z</time>
      </trkpt>
      <trkpt lat="46.36597" lon="2.4496">
        <ele>364</ele>
        <time>2019-09-11T17:40:35Z</time>
      </trkpt>
      <trkpt lat="46.36592" lon="2.4496">
        <ele>364</ele>
        <time>2019-09-11T17:40:36Z</time>
      </trkpt>
      <trkpt lat="46.36587" lon="2.44958">
        <ele>364</ele>
        <time>2019-09-11T17:40:37Z</time>
      </trkpt>
      <trkpt lat="46.36583" lon="2.44954">
        <ele>364</ele>
        <time>2019-09-11T17:40:38Z</time>
      </trkpt>
      <trkpt lat="46.36581" lon="2.4495">
        <ele>364</ele>
        <time>2019-09-11T17:40:39Z</time>
      </trkpt>
      <trkpt lat="46.36579" lon="2.44944">
        <ele>364</ele>
        <time>2019-09-11T17:40:40Z</time>
      </trkpt>
      <trkpt lat="46.36576" lon="2.44939">
        <ele>364.48</ele>
        <time>2019-09-11T17:40:41Z</time>
      </trkpt>
      <trkpt lat="46.36549" lon="2.44872">
        <ele>364.48</ele>
        <time>2019-09-11T17:40:55Z</time>
      </trkpt>
      <trkpt lat="46.36535" lon="2.44844">
        <ele>364.48</ele>
        <time>2019-09-11T17:41:01Z</time>
      </trkpt>
      <trkpt lat="46.36532" lon="2.4484">
        <ele>364.48</ele>
        <time>2019-09-11T17:41:02Z</time>
      </trkpt>
      <trkpt lat="46.36527" lon="2.44837">
        <ele>364.48</ele>
        <time>2019-09-11T17:41:03Z</time>
      </trkpt>
      <trkpt lat="46.36523" lon="2.44836">
        <ele>364.48</ele>
        <time>2019-09-11T17:41:04Z</time>
      </trkpt>
      <trkpt lat="46.36518" lon="2.44836">
        <ele>364.48</ele>
        <time>2019-09-11T17:41:05Z</time>
      </trkpt>
      <trkpt lat="46.36513" lon="2.44837">
        <ele>364.48</ele>
        <time>2019-09-11T17:41:06Z</time>
      </trkpt>
      <trkpt lat="46.36508" lon="2.44839">
        <ele>364.48</ele>
        <time>2019-09-11T17:41:07Z</time>
      </trkpt>
      <trkpt lat="46.3642" lon="2.44858">
        <ele>364.96</ele>
        <time>2019-09-11T17:41:24Z</time>
      </trkpt>
      <trkpt lat="46.36308" lon="2.44892">
        <ele>365.92</ele>
        <time>2019-09-11T17:41:46Z</time>
      </trkpt>
      <trkpt lat="46.36222" lon="2.44945">
        <ele>366.4</ele>
        <time>2019-09-11T17:42:03Z</time>
      </trkpt>
      <trkpt lat="46.36141" lon="2.45012">
        <ele>367.84</ele>
        <time>2019-09-11T17:42:20Z</time>
      </trkpt>
      <trkpt lat="46.36072" lon="2.45065">
        <ele>369.76</ele>
        <time>2019-09-11T17:42:35Z</time>
      </trkpt>
      <trkpt lat="46.36001" lon="2.45131">
        <ele>370.24</ele>
        <time>2019-09-11T17:42:52Z</time>
      </trkpt>
      <trkpt lat="46.35933" lon="2.45235">
        <ele>370.73</ele>
        <time>2019-09-11T17:43:09Z</time>
      </trkpt>
      <trkpt lat="46.35884" lon="2.45359">
        <ele>370.73</ele>
        <time>2019-09-11T17:43:27Z</time>
      </trkpt>
      <trkpt lat="46.35843" lon="2.45458">
        <ele>373.13</ele>
        <time>2019-09-11T17:43:44Z</time>
      </trkpt>
      <trkpt lat="46.35804" lon="2.4555">
        <ele>375.53</ele>
        <time>2019-09-11T17:44:01Z</time>
      </trkpt>
      <trkpt lat="46.35758" lon="2.45661">
        <ele>376.49</ele>
        <time>2019-09-11T17:44:20Z</time>
      </trkpt>
      <trkpt lat="46.35745" lon="2.45779">
        <ele>376.49</ele>
        <time>2019-09-11T17:44:36Z</time>
      </trkpt>
      <trkpt lat="46.3576" lon="2.45928">
        <ele>376.49</ele>
        <time>2019-09-11T17:44:55Z</time>
      </trkpt>
      <trkpt lat="46.35763" lon="2.45944">
        <ele>376.49</ele>
        <time>2019-09-11T17:44:57Z</time>
      </trkpt>
      <trkpt lat="46.35764" lon="2.45952">
        <ele>376.49</ele>
        <time>2019-09-11T17:44:58Z</time>
      </trkpt>
      <trkpt lat="46.35764" lon="2.4596">
        <ele>376.49</ele>
        <time>2019-09-11T17:44:59Z</time>
      </trkpt>
      <trkpt lat="46.35762" lon="2.46014">
        <ele>375.05</ele>
        <time>2019-09-11T17:45:05Z</time>
      </trkpt>
      <trkpt lat="46.35769" lon="2.46143">
        <ele>373.13</ele>
        <time>2019-09-11T17:45:20Z</time>
      </trkpt>
      <trkpt lat="46.35774" lon="2.46259">
        <ele>371.69</ele>
        <time>2019-09-11T17:45:33Z</time>
      </trkpt>
      <trkpt lat="46.35774" lon="2.46264">
        <ele>371.69</ele>
        <time>2019-09-11T17:45:34Z</time>
      </trkpt>
      <trkpt lat="46.35776" lon="2.46277">
        <ele>371.21</ele>
        <time>2019-09-11T17:45:37Z</time>
      </trkpt>
      <trkpt lat="46.3579" lon="2.46326">
        <ele>371.21</ele>
        <time>2019-09-11T17:45:46Z</time>
      </trkpt>
      <trkpt lat="46.35791" lon="2.46334">
        <ele>371.21</ele>
        <time>2019-09-11T17:45:47Z</time>
      </trkpt>
      <trkpt lat="46.35814" lon="2.46456">
        <ele>370.73</ele>
        <time>2019-09-11T17:46:01Z</time>
      </trkpt>
      <trkpt lat="46.35855" lon="2.46663">
        <ele>369.76</ele>
        <time>2019-09-11T17:46:22Z</time>
      </trkpt>
      <trkpt lat="46.35892" lon="2.4685">
        <ele>367.36</ele>
        <time>2019-09-11T17:46:40Z</time>
      </trkpt>
      <trkpt lat="46.35928" lon="2.46975">
        <ele>365.92</ele>
        <time>2019-09-11T17:46:53Z</time>
      </trkpt>
      <trkpt lat="46.35975" lon="2.47151">
        <ele>364.48</ele>
        <time>2019-09-11T17:47:11Z</time>
      </trkpt>
      <trkpt lat="46.3598" lon="2.47209">
        <ele>363.52</ele>
        <time>2019-09-11T17:47:17Z</time>
      </trkpt>
      <trkpt lat="46.3598" lon="2.47237">
        <ele>363.52</ele>
        <time>2019-09-11T17:47:20Z</time>
      </trkpt>
      <trkpt lat="46.35981" lon="2.47246">
        <ele>363.52</ele>
        <time>2019-09-11T17:47:21Z</time>
      </trkpt>
      <trkpt lat="46.36003" lon="2.4733">
        <ele>361.59</ele>
        <time>2019-09-11T17:47:31Z</time>
      </trkpt>
      <trkpt lat="46.36012" lon="2.47348">
        <ele>361.59</ele>
        <time>2019-09-11T17:47:34Z</time>
      </trkpt>
      <trkpt lat="46.36015" lon="2.47353">
        <ele>361.59</ele>
        <time>2019-09-11T17:47:35Z</time>
      </trkpt>
      <trkpt lat="46.36023" lon="2.4737">
        <ele>361.59</ele>
        <time>2019-09-11T17:47:38Z</time>
      </trkpt>
      <trkpt lat="46.36051" lon="2.47462">
        <ele>361.59</ele>
        <time>2019-09-11T17:47:50Z</time>
      </trkpt>
      <trkpt lat="46.36092" lon="2.47587">
        <ele>361.11</ele>
        <time>2019-09-11T17:48:05Z</time>
      </trkpt>
      <trkpt lat="46.36115" lon="2.4768">
        <ele>360.15</ele>
        <time>2019-09-11T17:48:18Z</time>
      </trkpt>
      <trkpt lat="46.36131" lon="2.4775">
        <ele>359.67</ele>
        <time>2019-09-11T17:48:27Z</time>
      </trkpt>
      <trkpt lat="46.3613" lon="2.47757">
        <ele>359.19</ele>
        <time>2019-09-11T17:48:28Z</time>
      </trkpt>
      <trkpt lat="46.36126" lon="2.47763">
        <ele>358.71</ele>
        <time>2019-09-11T17:48:29Z</time>
      </trkpt>
      <trkpt lat="46.36121" lon="2.47767">
        <ele>358.71</ele>
        <time>2019-09-11T17:48:30Z</time>
      </trkpt>
      <trkpt lat="46.36117" lon="2.4777">
        <ele>358.71</ele>
        <time>2019-09-11T17:48:31Z</time>
      </trkpt>
      <trkpt lat="46.36112" lon="2.47773">
        <ele>358.71</ele>
        <time>2019-09-11T17:48:32Z</time>
      </trkpt>
      <trkpt lat="46.36101" lon="2.47779">
        <ele>358.71</ele>
        <time>2019-09-11T17:48:34Z</time>
      </trkpt>
      <trkpt lat="46.36096" lon="2.47781">
        <ele>358.23</ele>
        <time>2019-09-11T17:48:35Z</time>
      </trkpt>
      <trkpt lat="46.36005" lon="2.47831">
        <ele>355.34</ele>
        <time>2019-09-11T17:48:51Z</time>
      </trkpt>
      <trkpt lat="46.35993" lon="2.47842">
        <ele>355.34</ele>
        <time>2019-09-11T17:48:53Z</time>
      </trkpt>
      <trkpt lat="46.3593" lon="2.47914">
        <ele>351.98</ele>
        <time>2019-09-11T17:49:03Z</time>
      </trkpt>
      <trkpt lat="46.35893" lon="2.47958">
        <ele>350.54</ele>
        <time>2019-09-11T17:49:09Z</time>
      </trkpt>
      <trkpt lat="46.35888" lon="2.47967">
        <ele>350.54</ele>
        <time>2019-09-11T17:49:10Z</time>
      </trkpt>
      <trkpt lat="46.35868" lon="2.48018">
        <ele>349.1</ele>
        <time>2019-09-11T17:49:15Z</time>
      </trkpt>
      <trkpt lat="46.35865" lon="2.48029">
        <ele>349.1</ele>
        <time>2019-09-11T17:49:16Z</time>
      </trkpt>
      <trkpt lat="46.35863" lon="2.48039">
        <ele>349.1</ele>
        <time>2019-09-11T17:49:17Z</time>
      </trkpt>
      <trkpt lat="46.35838" lon="2.48154">
        <ele>345.73</ele>
        <time>2019-09-11T17:49:28Z</time>
      </trkpt>
      <trkpt lat="46.35795" lon="2.48259">
        <ele>342.37</ele>
        <time>2019-09-11T17:49:38Z</time>
      </trkpt>
      <trkpt lat="46.35741" lon="2.48355">
        <ele>339</ele>
        <time>2019-09-11T17:49:48Z</time>
      </trkpt>
      <trkpt lat="46.35728" lon="2.48383">
        <ele>337.56</ele>
        <time>2019-09-11T17:49:51Z</time>
      </trkpt>
      <trkpt lat="46.35725" lon="2.48395">
        <ele>337.08</ele>
        <time>2019-09-11T17:49:52Z</time>
      </trkpt>
      <trkpt lat="46.35723" lon="2.48407">
        <ele>336.12</ele>
        <time>2019-09-11T17:49:53Z</time>
      </trkpt>
      <trkpt lat="46.3571" lon="2.48465">
        <ele>333.23</ele>
        <time>2019-09-11T17:49:58Z</time>
      </trkpt>
      <trkpt lat="46.35706" lon="2.48472">
        <ele>332.75</ele>
        <time>2019-09-11T17:49:59Z</time>
      </trkpt>
      <trkpt lat="46.357" lon="2.48478">
        <ele>332.27</ele>
        <time>2019-09-11T17:50:00Z</time>
      </trkpt>
      <trkpt lat="46.35694" lon="2.48482">
        <ele>331.79</ele>
        <time>2019-09-11T17:50:01Z</time>
      </trkpt>
      <trkpt lat="46.35687" lon="2.48485">
        <ele>330.83</ele>
        <time>2019-09-11T17:50:02Z</time>
      </trkpt>
      <trkpt lat="46.3568" lon="2.48489">
        <ele>330.35</ele>
        <time>2019-09-11T17:50:03Z</time>
      </trkpt>
      <trkpt lat="46.35674" lon="2.48494">
        <ele>330.35</ele>
        <time>2019-09-11T17:50:04Z</time>
      </trkpt>
      <trkpt lat="46.35668" lon="2.48499">
        <ele>329.87</ele>
        <time>2019-09-11T17:50:05Z</time>
      </trkpt>
      <trkpt lat="46.35662" lon="2.48504">
        <ele>329.39</ele>
        <time>2019-09-11T17:50:06Z</time>
      </trkpt>
      <trkpt lat="46.35656" lon="2.48508">
        <ele>328.43</ele>
        <time>2019-09-11T17:50:07Z</time>
      </trkpt>
      <trkpt lat="46.35647" lon="2.48512">
        <ele>327.47</ele>
        <time>2019-09-11T17:50:08Z</time>
      </trkpt>
      <trkpt lat="46.35639" lon="2.48514">
        <ele>326.5</ele>
        <time>2019-09-11T17:50:09Z</time>
      </trkpt>
      <trkpt lat="46.35631" lon="2.48517">
        <ele>326.02</ele>
        <time>2019-09-11T17:50:10Z</time>
      </trkpt>
      <trkpt lat="46.35624" lon="2.48522">
        <ele>325.54</ele>
        <time>2019-09-11T17:50:11Z</time>
      </trkpt>
      <trkpt lat="46.35616" lon="2.48529">
        <ele>325.54</ele>
        <time>2019-09-11T17:50:12Z</time>
      </trkpt>
      <trkpt lat="46.3561" lon="2.48537">
        <ele>325.54</ele>
        <time>2019-09-11T17:50:13Z</time>
      </trkpt>
      <trkpt lat="46.35604" lon="2.48546">
        <ele>325.54</ele>
        <time>2019-09-11T17:50:14Z</time>
      </trkpt>
      <trkpt lat="46.35599" lon="2.48556">
        <ele>325.06</ele>
        <time>2019-09-11T17:50:15Z</time>
      </trkpt>
      <trkpt lat="46.35594" lon="2.48566">
        <ele>325.06</ele>
        <time>2019-09-11T17:50:16Z</time>
      </trkpt>
      <trkpt lat="46.3559" lon="2.48575">
        <ele>325.06</ele>
        <time>2019-09-11T17:50:17Z</time>
      </trkpt>
      <trkpt lat="46.35586" lon="2.48586">
        <ele>325.06</ele>
        <time>2019-09-11T17:50:18Z</time>
      </trkpt>
      <trkpt lat="46.35582" lon="2.48595">
        <ele>324.1</ele>
        <time>2019-09-11T17:50:19Z</time>
      </trkpt>
      <trkpt lat="46.35577" lon="2.48604">
        <ele>324.1</ele>
        <time>2019-09-11T17:50:20Z</time>
      </trkpt>
      <trkpt lat="46.35571" lon="2.48611">
        <ele>324.1</ele>
        <time>2019-09-11T17:50:21Z</time>
      </trkpt>
      <trkpt lat="46.35553" lon="2.48631">
        <ele>324.1</ele>
        <time>2019-09-11T17:50:24Z</time>
      </trkpt>
      <trkpt lat="46.35548" lon="2.48639">
        <ele>324.1</ele>
        <time>2019-09-11T17:50:25Z</time>
      </trkpt>
      <trkpt lat="46.35544" lon="2.48648">
        <ele>324.1</ele>
        <time>2019-09-11T17:50:26Z</time>
      </trkpt>
      <trkpt lat="46.35517" lon="2.48717">
        <ele>323.62</ele>
        <time>2019-09-11T17:50:34Z</time>
      </trkpt>
      <trkpt lat="46.35516" lon="2.48725">
        <ele>323.62</ele>
        <time>2019-09-11T17:50:35Z</time>
      </trkpt>
      <trkpt lat="46.35515" lon="2.48734">
        <ele>323.62</ele>
        <time>2019-09-11T17:50:36Z</time>
      </trkpt>
      <trkpt lat="46.35516" lon="2.48742">
        <ele>324.1</ele>
        <time>2019-09-11T17:50:37Z</time>
      </trkpt>
      <trkpt lat="46.35517" lon="2.48749">
        <ele>324.1</ele>
        <time>2019-09-11T17:50:38Z</time>
      </trkpt>
      <trkpt lat="46.35519" lon="2.48758">
        <ele>323.62</ele>
        <time>2019-09-11T17:50:39Z</time>
      </trkpt>
      <trkpt lat="46.35523" lon="2.48783">
        <ele>323.62</ele>
        <time>2019-09-11T17:50:42Z</time>
      </trkpt>
      <trkpt lat="46.35523" lon="2.48792">
        <ele>323.62</ele>
        <time>2019-09-11T17:50:43Z</time>
      </trkpt>
      <trkpt lat="46.35522" lon="2.48801">
        <ele>323.62</ele>
        <time>2019-09-11T17:50:44Z</time>
      </trkpt>
      <trkpt lat="46.35521" lon="2.48809">
        <ele>323.62</ele>
        <time>2019-09-11T17:50:45Z</time>
      </trkpt>
      <trkpt lat="46.35519" lon="2.48817">
        <ele>323.62</ele>
        <time>2019-09-11T17:50:46Z</time>
      </trkpt>
      <trkpt lat="46.35509" lon="2.48853">
        <ele>324.1</ele>
        <time>2019-09-11T17:50:51Z</time>
      </trkpt>
      <trkpt lat="46.35506" lon="2.48858">
        <ele>324.1</ele>
        <time>2019-09-11T17:50:52Z</time>
      </trkpt>
      <trkpt lat="46.35502" lon="2.48862">
        <ele>324.1</ele>
        <time>2019-09-11T17:50:53Z</time>
      </trkpt>
      <trkpt lat="46.35498" lon="2.48866">
        <ele>324.1</ele>
        <time>2019-09-11T17:50:54Z</time>
      </trkpt>
      <trkpt lat="46.35493" lon="2.4887">
        <ele>324.1</ele>
        <time>2019-09-11T17:50:55Z</time>
      </trkpt>
      <trkpt lat="46.3549" lon="2.48875">
        <ele>324.1</ele>
        <time>2019-09-11T17:50:56Z</time>
      </trkpt>
      <trkpt lat="46.35489" lon="2.48881">
        <ele>324.1</ele>
        <time>2019-09-11T17:50:57Z</time>
      </trkpt>
      <trkpt lat="46.35489" lon="2.48888">
        <ele>324.1</ele>
        <time>2019-09-11T17:50:58Z</time>
      </trkpt>
      <trkpt lat="46.35491" lon="2.48893">
        <ele>324.1</ele>
        <time>2019-09-11T17:50:59Z</time>
      </trkpt>
      <trkpt lat="46.35493" lon="2.48899">
        <ele>323.62</ele>
        <time>2019-09-11T17:51:00Z</time>
      </trkpt>
      <trkpt lat="46.35495" lon="2.48904">
        <ele>323.62</ele>
        <time>2019-09-11T17:51:01Z</time>
      </trkpt>
      <trkpt lat="46.35502" lon="2.48929">
        <ele>323.14</ele>
        <time>2019-09-11T17:51:06Z</time>
      </trkpt>
      <trkpt lat="46.355" lon="2.48934">
        <ele>323.14</ele>
        <time>2019-09-11T17:51:07Z</time>
      </trkpt>
      <trkpt lat="46.35498" lon="2.4894">
        <ele>322.18</ele>
        <time>2019-09-11T17:51:08Z</time>
      </trkpt>
      <trkpt lat="46.35494" lon="2.48945">
        <ele>321.7</ele>
        <time>2019-09-11T17:51:09Z</time>
      </trkpt>
      <trkpt lat="46.35489" lon="2.48952">
        <ele>321.22</ele>
        <time>2019-09-11T17:51:10Z</time>
      </trkpt>
      <trkpt lat="46.35466" lon="2.48985">
        <ele>316.89</ele>
        <time>2019-09-11T17:51:15Z</time>
      </trkpt>
      <trkpt lat="46.35454" lon="2.49001">
        <ele>314.49</ele>
        <time>2019-09-11T17:51:18Z</time>
      </trkpt>
      <trkpt lat="46.35449" lon="2.49004">
        <ele>314.01</ele>
        <time>2019-09-11T17:51:19Z</time>
      </trkpt>
      <trkpt lat="46.35444" lon="2.49004">
        <ele>313.53</ele>
        <time>2019-09-11T17:51:20Z</time>
      </trkpt>
      <trkpt lat="46.35439" lon="2.49006">
        <ele>313.53</ele>
        <time>2019-09-11T17:51:21Z</time>
      </trkpt>
      <trkpt lat="46.35436" lon="2.49009">
        <ele>313.05</ele>
        <time>2019-09-11T17:51:22Z</time>
      </trkpt>
      <trkpt lat="46.35434" lon="2.49011">
        <ele>313.05</ele>
        <time>2019-09-11T17:51:23Z</time>
      </trkpt>
      <trkpt lat="46.35431" lon="2.49014">
        <ele>313.05</ele>
        <time>2019-09-11T17:51:24Z</time>
      </trkpt>
      <trkpt lat="46.35427" lon="2.49018">
        <ele>313.05</ele>
        <time>2019-09-11T17:51:25Z</time>
      </trkpt>
      <trkpt lat="46.35423" lon="2.49022">
        <ele>313.05</ele>
        <time>2019-09-11T17:51:26Z</time>
      </trkpt>
      <trkpt lat="46.35419" lon="2.49029">
        <ele>312.57</ele>
        <time>2019-09-11T17:51:27Z</time>
      </trkpt>
      <trkpt lat="46.35411" lon="2.4904">
        <ele>312.57</ele>
        <time>2019-09-11T17:51:29Z</time>
      </trkpt>
      <trkpt lat="46.35407" lon="2.49043">
        <ele>314.01</ele>
        <time>2019-09-11T17:51:30Z</time>
      </trkpt>
      <trkpt lat="46.35403" lon="2.49044">
        <ele>314.97</ele>
        <time>2019-09-11T17:51:31Z</time>
      </trkpt>
      <trkpt lat="46.354" lon="2.49042">
        <ele>314.97</ele>
        <time>2019-09-11T17:51:32Z</time>
      </trkpt>
      <trkpt lat="46.35397" lon="2.4904">
        <ele>315.45</ele>
        <time>2019-09-11T17:51:33Z</time>
      </trkpt>
      <trkpt lat="46.35394" lon="2.49038">
        <ele>315.45</ele>
        <time>2019-09-11T17:51:34Z</time>
      </trkpt>
      <trkpt lat="46.3539" lon="2.49037">
        <ele>315.93</ele>
        <time>2019-09-11T17:51:35Z</time>
      </trkpt>
      <trkpt lat="46.35357" lon="2.4905">
        <ele>317.37</ele>
        <time>2019-09-11T17:51:45Z</time>
      </trkpt>
      <trkpt lat="46.35334" lon="2.4908">
        <ele>317.85</ele>
        <time>2019-09-11T17:51:52Z</time>
      </trkpt>
      <trkpt lat="46.35331" lon="2.49084">
        <ele>317.85</ele>
        <time>2019-09-11T17:51:53Z</time>
      </trkpt>
      <trkpt lat="46.35278" lon="2.49157">
        <ele>318.33</ele>
        <time>2019-09-11T17:52:09Z</time>
      </trkpt>
      <trkpt lat="46.35252" lon="2.49188">
        <ele>318.33</ele>
        <time>2019-09-11T17:52:16Z</time>
      </trkpt>
      <trkpt lat="46.35248" lon="2.49192">
        <ele>318.33</ele>
        <time>2019-09-11T17:52:17Z</time>
      </trkpt>
      <trkpt lat="46.35188" lon="2.49248">
        <ele>315.93</ele>
        <time>2019-09-11T17:52:30Z</time>
      </trkpt>
      <trkpt lat="46.3517" lon="2.49268">
        <ele>315.93</ele>
        <time>2019-09-11T17:52:34Z</time>
      </trkpt>
      <trkpt lat="46.35165" lon="2.49271">
        <ele>315.93</ele>
        <time>2019-09-11T17:52:35Z</time>
      </trkpt>
      <trkpt lat="46.3516" lon="2.49273">
        <ele>315.93</ele>
        <time>2019-09-11T17:52:36Z</time>
      </trkpt>
      <trkpt lat="46.35156" lon="2.49274">
        <ele>315.93</ele>
        <time>2019-09-11T17:52:37Z</time>
      </trkpt>
      <trkpt lat="46.35152" lon="2.49275">
        <ele>315.93</ele>
        <time>2019-09-11T17:52:38Z</time>
      </trkpt>
      <trkpt lat="46.35148" lon="2.49276">
        <ele>315.93</ele>
        <time>2019-09-11T17:52:39Z</time>
      </trkpt>
      <trkpt lat="46.35145" lon="2.49278">
        <ele>315.93</ele>
        <time>2019-09-11T17:52:40Z</time>
      </trkpt>
      <trkpt lat="46.35141" lon="2.4928">
        <ele>317.37</ele>
        <time>2019-09-11T17:52:41Z</time>
      </trkpt>
      <trkpt lat="46.35139" lon="2.49283">
        <ele>317.37</ele>
        <time>2019-09-11T17:52:42Z</time>
      </trkpt>
      <trkpt lat="46.35119" lon="2.49299">
        <ele>320.74</ele>
        <time>2019-09-11T17:52:52Z</time>
      </trkpt>
      <trkpt lat="46.35116" lon="2.493">
        <ele>321.22</ele>
        <time>2019-09-11T17:52:54Z</time>
      </trkpt>
      <trkpt lat="46.35102" lon="2.49283">
        <ele>323.14</ele>
        <time>2019-09-11T17:53:04Z</time>
      </trkpt>
      <trkpt lat="46.35078" lon="2.49271">
        <ele>326.5</ele>
        <time>2019-09-11T17:53:17Z</time>
      </trkpt>
      <trkpt lat="46.35044" lon="2.49259">
        <ele>328.91</ele>
        <time>2019-09-11T17:53:33Z</time>
      </trkpt>
      <trkpt lat="46.35008" lon="2.49235">
        <ele>328.91</ele>
        <time>2019-09-11T17:53:46Z</time>
      </trkpt>
      <trkpt lat="46.34962" lon="2.49194">
        <ele>329.39</ele>
        <time>2019-09-11T17:54:02Z</time>
      </trkpt>
      <trkpt lat="46.34918" lon="2.49195">
        <ele>329.87</ele>
        <time>2019-09-11T17:54:15Z</time>
      </trkpt>
      <trkpt lat="46.34871" lon="2.4921">
        <ele>330.83</ele>
        <time>2019-09-11T17:54:29Z</time>
      </trkpt>
      <trkpt lat="46.34832" lon="2.49202">
        <ele>333.23</ele>
        <time>2019-09-11T17:54:42Z</time>
      </trkpt>
      <trkpt lat="46.34789" lon="2.49195">
        <ele>335.64</ele>
        <time>2019-09-11T17:54:57Z</time>
      </trkpt>
      <trkpt lat="46.34767" lon="2.49195">
        <ele>337.56</ele>
        <time>2019-09-11T17:55:05Z</time>
      </trkpt>
      <trkpt lat="46.3476" lon="2.49233">
        <ele>339.48</ele>
        <time>2019-09-11T17:55:16Z</time>
      </trkpt>
      <trkpt lat="46.34734" lon="2.49279">
        <ele>341.41</ele>
        <time>2019-09-11T17:55:30Z</time>
      </trkpt>
      <trkpt lat="46.34702" lon="2.49311">
        <ele>342.85</ele>
        <time>2019-09-11T17:55:43Z</time>
      </trkpt>
      <trkpt lat="46.34675" lon="2.49273">
        <ele>343.81</ele>
        <time>2019-09-11T17:55:55Z</time>
      </trkpt>
      <trkpt lat="46.34641" lon="2.49252">
        <ele>345.73</ele>
        <time>2019-09-11T17:56:07Z</time>
      </trkpt>
      <trkpt lat="46.34622" lon="2.49224">
        <ele>347.17</ele>
        <time>2019-09-11T17:56:17Z</time>
      </trkpt>
      <trkpt lat="46.34602" lon="2.49153">
        <ele>347.65</ele>
        <time>2019-09-11T17:56:31Z</time>
      </trkpt>
      <trkpt lat="46.34597" lon="2.49117">
        <ele>347.65</ele>
        <time>2019-09-11T17:56:37Z</time>
      </trkpt>
      <trkpt lat="46.34594" lon="2.49105">
        <ele>347.65</ele>
        <time>2019-09-11T17:56:39Z</time>
      </trkpt>
      <trkpt lat="46.34592" lon="2.491">
        <ele>347.65</ele>
        <time>2019-09-11T17:56:40Z</time>
      </trkpt>
      <trkpt lat="46.34552" lon="2.49025">
        <ele>348.62</ele>
        <time>2019-09-11T17:56:57Z</time>
      </trkpt>
      <trkpt lat="46.34515" lon="2.48952">
        <ele>349.1</ele>
        <time>2019-09-11T17:57:14Z</time>
      </trkpt>
      <trkpt lat="46.34482" lon="2.48902">
        <ele>347.65</ele>
        <time>2019-09-11T17:57:26Z</time>
      </trkpt>
      <trkpt lat="46.3448" lon="2.48895">
        <ele>347.65</ele>
        <time>2019-09-11T17:57:27Z</time>
      </trkpt>
      <trkpt lat="46.34464" lon="2.48832">
        <ele>347.65</ele>
        <time>2019-09-11T17:57:39Z</time>
      </trkpt>
      <trkpt lat="46.34451" lon="2.48795">
        <ele>349.1</ele>
        <time>2019-09-11T17:57:48Z</time>
      </trkpt>
      <trkpt lat="46.34434" lon="2.48755">
        <ele>350.06</ele>
        <time>2019-09-11T17:57:59Z</time>
      </trkpt>
      <trkpt lat="46.34419" lon="2.48736">
        <ele>350.54</ele>
        <time>2019-09-11T17:58:06Z</time>
      </trkpt>
      <trkpt lat="46.34418" lon="2.48692">
        <ele>352.94</ele>
        <time>2019-09-11T17:58:18Z</time>
      </trkpt>
      <trkpt lat="46.34418" lon="2.48654">
        <ele>354.86</ele>
        <time>2019-09-11T17:58:31Z</time>
      </trkpt>
      <trkpt lat="46.34419" lon="2.48649">
        <ele>355.34</ele>
        <time>2019-09-11T17:58:33Z</time>
      </trkpt>
      <trkpt lat="46.34418" lon="2.48634">
        <ele>356.79</ele>
        <time>2019-09-11T17:58:38Z</time>
      </trkpt>
      <trkpt lat="46.34413" lon="2.48598">
        <ele>360.15</ele>
        <time>2019-09-11T17:58:51Z</time>
      </trkpt>
      <trkpt lat="46.34408" lon="2.48563">
        <ele>362.55</ele>
        <time>2019-09-11T17:59:07Z</time>
      </trkpt>
      <trkpt lat="46.344" lon="2.48541">
        <ele>364.48</ele>
        <time>2019-09-11T17:59:18Z</time>
      </trkpt>
      <trkpt lat="46.34396" lon="2.48533">
        <ele>364.96</ele>
        <time>2019-09-11T17:59:22Z</time>
      </trkpt>
      <trkpt lat="46.34386" lon="2.48519">
        <ele>366.88</ele>
        <time>2019-09-11T17:59:31Z</time>
      </trkpt>
      <trkpt lat="46.34383" lon="2.48513">
        <ele>367.84</ele>
        <time>2019-09-11T17:59:35Z</time>
      </trkpt>
      <trkpt lat="46.3438" lon="2.48491">
        <ele>369.28</ele>
        <time>2019-09-11T17:59:44Z</time>
      </trkpt>
      <trkpt lat="46.34382" lon="2.48452">
        <ele>371.69</ele>
        <time>2019-09-11T17:59:58Z</time>
      </trkpt>
      <trkpt lat="46.34384" lon="2.48419">
        <ele>373.61</ele>
        <time>2019-09-11T18:00:10Z</time>
      </trkpt>
      <trkpt lat="46.34376" lon="2.48386">
        <ele>376.49</ele>
        <time>2019-09-11T18:00:22Z</time>
      </trkpt>
      <trkpt lat="46.34354" lon="2.48349">
        <ele>378.42</ele>
        <time>2019-09-11T18:00:37Z</time>
      </trkpt>
      <trkpt lat="46.34337" lon="2.48298">
        <ele>380.82</ele>
        <time>2019-09-11T18:00:52Z</time>
      </trkpt>
      <trkpt lat="46.34326" lon="2.48248">
        <ele>383.7</ele>
        <time>2019-09-11T18:01:06Z</time>
      </trkpt>
      <trkpt lat="46.34315" lon="2.48198">
        <ele>387.55</ele>
        <time>2019-09-11T18:01:20Z</time>
      </trkpt>
      <trkpt lat="46.34304" lon="2.48147">
        <ele>390.43</ele>
        <time>2019-09-11T18:01:36Z</time>
      </trkpt>
      <trkpt lat="46.34292" lon="2.48104">
        <ele>393.32</ele>
        <time>2019-09-11T18:01:50Z</time>
      </trkpt>
      <trkpt lat="46.34273" lon="2.48047">
        <ele>395.24</ele>
        <time>2019-09-11T18:02:06Z</time>
      </trkpt>
      <trkpt lat="46.34245" lon="2.48017">
        <ele>398.12</ele>
        <time>2019-09-11T18:02:19Z</time>
      </trkpt>
      <trkpt lat="46.34213" lon="2.47989">
        <ele>400.53</ele>
        <time>2019-09-11T18:02:33Z</time>
      </trkpt>
      <trkpt lat="46.34175" lon="2.4795">
        <ele>402.45</ele>
        <time>2019-09-11T18:02:48Z</time>
      </trkpt>
      <trkpt lat="46.34136" lon="2.47912">
        <ele>402.93</ele>
        <time>2019-09-11T18:03:02Z</time>
      </trkpt>
      <trkpt lat="46.34122" lon="2.47874">
        <ele>402.93</ele>
        <time>2019-09-11T18:03:13Z</time>
      </trkpt>
      <trkpt lat="46.34121" lon="2.47862">
        <ele>402.93</ele>
        <time>2019-09-11T18:03:17Z</time>
      </trkpt>
      <trkpt lat="46.34121" lon="2.47859">
        <ele>402.93</ele>
        <time>2019-09-11T18:03:18Z</time>
      </trkpt>
      <trkpt lat="46.3412" lon="2.47857">
        <ele>402.93</ele>
        <time>2019-09-11T18:03:19Z</time>
      </trkpt>
      <trkpt lat="46.34118" lon="2.47855">
        <ele>402.93</ele>
        <time>2019-09-11T18:03:20Z</time>
      </trkpt>
      <trkpt lat="46.34117" lon="2.47854">
        <ele>402.93</ele>
        <time>2019-09-11T18:03:21Z</time>
      </trkpt>
      <trkpt lat="46.34115" lon="2.47853">
        <ele>402.93</ele>
        <time>2019-09-11T18:03:36Z</time>
      </trkpt>
      <trkpt lat="46.34112" lon="2.4785">
        <ele>402.93</ele>
        <time>2019-09-11T18:03:46Z</time>
      </trkpt>
      <trkpt lat="46.34109" lon="2.47851">
        <ele>402.93</ele>
        <time>2019-09-11T18:03:47Z</time>
      </trkpt>
      <trkpt lat="46.34105" lon="2.47852">
        <ele>402.93</ele>
        <time>2019-09-11T18:03:48Z</time>
      </trkpt>
      <trkpt lat="46.34102" lon="2.47853">
        <ele>401.97</ele>
        <time>2019-09-11T18:03:49Z</time>
      </trkpt>
      <trkpt lat="46.34098" lon="2.47854">
        <ele>401.97</ele>
        <time>2019-09-11T18:03:50Z</time>
      </trkpt>
      <trkpt lat="46.34094" lon="2.47853">
        <ele>401.49</ele>
        <time>2019-09-11T18:03:51Z</time>
      </trkpt>
      <trkpt lat="46.34088" lon="2.47853">
        <ele>401.49</ele>
        <time>2019-09-11T18:03:52Z</time>
      </trkpt>
      <trkpt lat="46.34068" lon="2.47851">
        <ele>400.53</ele>
        <time>2019-09-11T18:03:56Z</time>
      </trkpt>
      <trkpt lat="46.34026" lon="2.47856">
        <ele>397.16</ele>
        <time>2019-09-11T18:04:04Z</time>
      </trkpt>
      <trkpt lat="46.33964" lon="2.47865">
        <ele>393.8</ele>
        <time>2019-09-11T18:04:14Z</time>
      </trkpt>
      <trkpt lat="46.33931" lon="2.47867">
        <ele>393.8</ele>
        <time>2019-09-11T18:04:19Z</time>
      </trkpt>
      <trkpt lat="46.33819" lon="2.47864">
        <ele>390.43</ele>
        <time>2019-09-11T18:04:35Z</time>
      </trkpt>
      <trkpt lat="46.33791" lon="2.47863">
        <ele>390.43</ele>
        <time>2019-09-11T18:04:39Z</time>
      </trkpt>
      <trkpt lat="46.33785" lon="2.47864">
        <ele>390.43</ele>
        <time>2019-09-11T18:04:40Z</time>
      </trkpt>
      <trkpt lat="46.33705" lon="2.47879">
        <ele>390.43</ele>
        <time>2019-09-11T18:04:53Z</time>
      </trkpt>
      <trkpt lat="46.33637" lon="2.47875">
        <ele>390.43</ele>
        <time>2019-09-11T18:05:05Z</time>
      </trkpt>
      <trkpt lat="46.33577" lon="2.47888">
        <ele>390.43</ele>
        <time>2019-09-11T18:05:16Z</time>
      </trkpt>
      <trkpt lat="46.33534" lon="2.47896">
        <ele>390.43</ele>
        <time>2019-09-11T18:05:25Z</time>
      </trkpt>
      <trkpt lat="46.33463" lon="2.47898">
        <ele>391.87</ele>
        <time>2019-09-11T18:05:41Z</time>
      </trkpt>
      <trkpt lat="46.33437" lon="2.4793">
        <ele>392.84</ele>
        <time>2019-09-11T18:05:50Z</time>
      </trkpt>
      <trkpt lat="46.33375" lon="2.48005">
        <ele>394.76</ele>
        <time>2019-09-11T18:06:06Z</time>
      </trkpt>
      <trkpt lat="46.33343" lon="2.48051">
        <ele>395.24</ele>
        <time>2019-09-11T18:06:15Z</time>
      </trkpt>
      <trkpt lat="46.33314" lon="2.48105">
        <ele>398.6</ele>
        <time>2019-09-11T18:06:26Z</time>
      </trkpt>
      <trkpt lat="46.33305" lon="2.48123">
        <ele>399.08</ele>
        <time>2019-09-11T18:06:30Z</time>
      </trkpt>
      <trkpt lat="46.33303" lon="2.48128">
        <ele>399.08</ele>
        <time>2019-09-11T18:06:31Z</time>
      </trkpt>
      <trkpt lat="46.33278" lon="2.4817">
        <ele>398.6</ele>
        <time>2019-09-11T18:06:39Z</time>
      </trkpt>
      <trkpt lat="46.33245" lon="2.48223">
        <ele>398.6</ele>
        <time>2019-09-11T18:06:50Z</time>
      </trkpt>
      <trkpt lat="46.33242" lon="2.48227">
        <ele>398.6</ele>
        <time>2019-09-11T18:06:51Z</time>
      </trkpt>
      <trkpt lat="46.33226" lon="2.4825">
        <ele>399.08</ele>
        <time>2019-09-11T18:06:57Z</time>
      </trkpt>
      <trkpt lat="46.33225" lon="2.48256">
        <ele>399.08</ele>
        <time>2019-09-11T18:06:58Z</time>
      </trkpt>
      <trkpt lat="46.33216" lon="2.48302">
        <ele>398.12</ele>
        <time>2019-09-11T18:07:06Z</time>
      </trkpt>
      <trkpt lat="46.33218" lon="2.48308">
        <ele>397.64</ele>
        <time>2019-09-11T18:07:07Z</time>
      </trkpt>
      <trkpt lat="46.3322" lon="2.48314">
        <ele>397.16</ele>
        <time>2019-09-11T18:07:08Z</time>
      </trkpt>
      <trkpt lat="46.33224" lon="2.48319">
        <ele>396.68</ele>
        <time>2019-09-11T18:07:09Z</time>
      </trkpt>
      <trkpt lat="46.33228" lon="2.48323">
        <ele>396.68</ele>
        <time>2019-09-11T18:07:10Z</time>
      </trkpt>
      <trkpt lat="46.33233" lon="2.48328">
        <ele>395.72</ele>
        <time>2019-09-11T18:07:11Z</time>
      </trkpt>
      <trkpt lat="46.33238" lon="2.48334">
        <ele>395.24</ele>
        <time>2019-09-11T18:07:12Z</time>
      </trkpt>
      <trkpt lat="46.33243" lon="2.4834">
        <ele>394.76</ele>
        <time>2019-09-11T18:07:13Z</time>
      </trkpt>
      <trkpt lat="46.33248" lon="2.48346">
        <ele>394.76</ele>
        <time>2019-09-11T18:07:14Z</time>
      </trkpt>
      <trkpt lat="46.33252" lon="2.48353">
        <ele>394.76</ele>
        <time>2019-09-11T18:07:15Z</time>
      </trkpt>
      <trkpt lat="46.33256" lon="2.48361">
        <ele>394.76</ele>
        <time>2019-09-11T18:07:16Z</time>
      </trkpt>
      <trkpt lat="46.33271" lon="2.4839">
        <ele>393.8</ele>
        <time>2019-09-11T18:07:20Z</time>
      </trkpt>
      <trkpt lat="46.33276" lon="2.48396">
        <ele>393.8</ele>
        <time>2019-09-11T18:07:21Z</time>
      </trkpt>
      <trkpt lat="46.3328" lon="2.48401">
        <ele>393.32</ele>
        <time>2019-09-11T18:07:22Z</time>
      </trkpt>
      <trkpt lat="46.33285" lon="2.48404">
        <ele>393.32</ele>
        <time>2019-09-11T18:07:23Z</time>
      </trkpt>
      <trkpt lat="46.3329" lon="2.48405">
        <ele>393.32</ele>
        <time>2019-09-11T18:07:24Z</time>
      </trkpt>
    </trkseg>
  </trk>
</gpx>